<?xml version="1.0" encoding="UTF-8" standalone="no" ?>
<gpx xmlns="http://www.topografix.com/GPX/1/1" xmlns:xsi="http://www.w3.org/2001/XMLSchema-instance" xsi:schemaLocation="http://www.topografix.com/GPX/1/1 http://www.topografix.com/GPX/1/1/gpx.xsd" version="1.1" creator="VisuGPX - https://www.visugpx.com">
  <metadata>
    <name>Aosta jour 1</name>
    <desc><![CDATA[Tour prevu à Aoste, ca va piquer les gambettes]]></desc>
  </metadata>
  <trk>
    <name><![CDATA[20171027222443-xvM4r]]></name>
    <trkseg>
      <trkpt lat="45.77027" lon="7.25784">
        <ele>2112</ele>
        <time>2017-06-13T12:11:20Z</time>
      </trkpt>
      <trkpt lat="45.7703" lon="7.25782">
        <ele>2112</ele>
        <time>2017-06-13T12:11:22Z</time>
      </trkpt>
      <trkpt lat="45.77037" lon="7.25777">
        <ele>2112</ele>
        <time>2017-06-13T12:11:25Z</time>
      </trkpt>
      <trkpt lat="45.77045" lon="7.25769">
        <ele>2112</ele>
        <time>2017-06-13T12:11:29Z</time>
      </trkpt>
      <trkpt lat="45.77052" lon="7.25768">
        <ele>2111</ele>
        <time>2017-06-13T12:11:31Z</time>
      </trkpt>
      <trkpt lat="45.77059" lon="7.25767">
        <ele>2111</ele>
        <time>2017-06-13T12:11:33Z</time>
      </trkpt>
      <trkpt lat="45.77062" lon="7.25765">
        <ele>2111</ele>
        <time>2017-06-13T12:11:34Z</time>
      </trkpt>
      <trkpt lat="45.77066" lon="7.25762">
        <ele>2110</ele>
        <time>2017-06-13T12:11:35Z</time>
      </trkpt>
      <trkpt lat="45.77077" lon="7.25748">
        <ele>2110</ele>
        <time>2017-06-13T12:11:37Z</time>
      </trkpt>
      <trkpt lat="45.77081" lon="7.25734">
        <ele>2111</ele>
        <time>2017-06-13T12:11:39Z</time>
      </trkpt>
      <trkpt lat="45.77084" lon="7.2573">
        <ele>2107</ele>
        <time>2017-06-13T12:11:41Z</time>
      </trkpt>
      <trkpt lat="45.77093" lon="7.25715">
        <ele>2106</ele>
        <time>2017-06-13T12:11:44Z</time>
      </trkpt>
      <trkpt lat="45.77105" lon="7.25703">
        <ele>2106</ele>
        <time>2017-06-13T12:11:50Z</time>
      </trkpt>
      <trkpt lat="45.77109" lon="7.25702">
        <ele>2106</ele>
        <time>2017-06-13T12:11:52Z</time>
      </trkpt>
      <trkpt lat="45.77117" lon="7.25689">
        <ele>2105</ele>
        <time>2017-06-13T12:11:56Z</time>
      </trkpt>
      <trkpt lat="45.77127" lon="7.25687">
        <ele>2105</ele>
        <time>2017-06-13T12:11:59Z</time>
      </trkpt>
      <trkpt lat="45.77144" lon="7.25694">
        <ele>2104</ele>
        <time>2017-06-13T12:12:04Z</time>
      </trkpt>
      <trkpt lat="45.77149" lon="7.25694">
        <ele>2104</ele>
        <time>2017-06-13T12:12:06Z</time>
      </trkpt>
      <trkpt lat="45.77155" lon="7.25681">
        <ele>2103</ele>
        <time>2017-06-13T12:12:10Z</time>
      </trkpt>
      <trkpt lat="45.77157" lon="7.25668">
        <ele>2102</ele>
        <time>2017-06-13T12:12:12Z</time>
      </trkpt>
      <trkpt lat="45.77158" lon="7.25662">
        <ele>2103</ele>
        <time>2017-06-13T12:12:13Z</time>
      </trkpt>
      <trkpt lat="45.77164" lon="7.25655">
        <ele>2103</ele>
        <time>2017-06-13T12:12:15Z</time>
      </trkpt>
      <trkpt lat="45.77167" lon="7.25654">
        <ele>2097</ele>
        <time>2017-06-13T12:12:16Z</time>
      </trkpt>
      <trkpt lat="45.77171" lon="7.25654">
        <ele>2096</ele>
        <time>2017-06-13T12:12:17Z</time>
      </trkpt>
      <trkpt lat="45.77175" lon="7.25653">
        <ele>2095</ele>
        <time>2017-06-13T12:12:18Z</time>
      </trkpt>
      <trkpt lat="45.77177" lon="7.2565">
        <ele>2095</ele>
        <time>2017-06-13T12:12:19Z</time>
      </trkpt>
      <trkpt lat="45.7718" lon="7.25646">
        <ele>2094</ele>
        <time>2017-06-13T12:12:20Z</time>
      </trkpt>
      <trkpt lat="45.77183" lon="7.25639">
        <ele>2093</ele>
        <time>2017-06-13T12:12:22Z</time>
      </trkpt>
      <trkpt lat="45.77184" lon="7.25635">
        <ele>2093</ele>
        <time>2017-06-13T12:12:23Z</time>
      </trkpt>
      <trkpt lat="45.77185" lon="7.2563">
        <ele>2092</ele>
        <time>2017-06-13T12:12:24Z</time>
      </trkpt>
      <trkpt lat="45.77187" lon="7.25625">
        <ele>2092</ele>
        <time>2017-06-13T12:12:25Z</time>
      </trkpt>
      <trkpt lat="45.77188" lon="7.25622">
        <ele>2092</ele>
        <time>2017-06-13T12:12:27Z</time>
      </trkpt>
      <trkpt lat="45.77192" lon="7.25618">
        <ele>2092</ele>
        <time>2017-06-13T12:13:03Z</time>
      </trkpt>
      <trkpt lat="45.77193" lon="7.25614">
        <ele>2092</ele>
        <time>2017-06-13T12:13:04Z</time>
      </trkpt>
      <trkpt lat="45.77196" lon="7.25596">
        <ele>2092</ele>
        <time>2017-06-13T12:13:07Z</time>
      </trkpt>
      <trkpt lat="45.77198" lon="7.25583">
        <ele>2098</ele>
        <time>2017-06-13T12:13:09Z</time>
      </trkpt>
      <trkpt lat="45.77203" lon="7.25578">
        <ele>2097</ele>
        <time>2017-06-13T12:13:11Z</time>
      </trkpt>
      <trkpt lat="45.77208" lon="7.25576">
        <ele>2097</ele>
        <time>2017-06-13T12:13:12Z</time>
      </trkpt>
      <trkpt lat="45.77212" lon="7.25576">
        <ele>2096</ele>
        <time>2017-06-13T12:13:13Z</time>
      </trkpt>
      <trkpt lat="45.77215" lon="7.25577">
        <ele>2095</ele>
        <time>2017-06-13T12:13:14Z</time>
      </trkpt>
      <trkpt lat="45.77219" lon="7.25577">
        <ele>2095</ele>
        <time>2017-06-13T12:13:16Z</time>
      </trkpt>
      <trkpt lat="45.77229" lon="7.25583">
        <ele>2092</ele>
        <time>2017-06-13T12:13:28Z</time>
      </trkpt>
      <trkpt lat="45.77234" lon="7.25586">
        <ele>2086</ele>
        <time>2017-06-13T12:13:30Z</time>
      </trkpt>
      <trkpt lat="45.77241" lon="7.25592">
        <ele>2085</ele>
        <time>2017-06-13T12:13:32Z</time>
      </trkpt>
      <trkpt lat="45.77248" lon="7.256">
        <ele>2085</ele>
        <time>2017-06-13T12:13:34Z</time>
      </trkpt>
      <trkpt lat="45.7726" lon="7.25613">
        <ele>2072</ele>
        <time>2017-06-13T12:13:40Z</time>
      </trkpt>
      <trkpt lat="45.77269" lon="7.25616">
        <ele>2071</ele>
        <time>2017-06-13T12:13:44Z</time>
      </trkpt>
      <trkpt lat="45.77273" lon="7.25615">
        <ele>2071</ele>
        <time>2017-06-13T12:13:46Z</time>
      </trkpt>
      <trkpt lat="45.77277" lon="7.25612">
        <ele>2070</ele>
        <time>2017-06-13T12:13:48Z</time>
      </trkpt>
      <trkpt lat="45.77284" lon="7.25603">
        <ele>2070</ele>
        <time>2017-06-13T12:13:51Z</time>
      </trkpt>
      <trkpt lat="45.77292" lon="7.25594">
        <ele>2070</ele>
        <time>2017-06-13T12:13:54Z</time>
      </trkpt>
      <trkpt lat="45.77298" lon="7.25588">
        <ele>2069</ele>
        <time>2017-06-13T12:13:56Z</time>
      </trkpt>
      <trkpt lat="45.77304" lon="7.25586">
        <ele>2068</ele>
        <time>2017-06-13T12:14:00Z</time>
      </trkpt>
      <trkpt lat="45.77308" lon="7.2558">
        <ele>2075</ele>
        <time>2017-06-13T12:15:32Z</time>
      </trkpt>
      <trkpt lat="45.77312" lon="7.25574">
        <ele>2075</ele>
        <time>2017-06-13T12:15:35Z</time>
      </trkpt>
      <trkpt lat="45.77319" lon="7.25564">
        <ele>2075</ele>
        <time>2017-06-13T12:15:39Z</time>
      </trkpt>
      <trkpt lat="45.77321" lon="7.25563">
        <ele>2075</ele>
        <time>2017-06-13T12:15:40Z</time>
      </trkpt>
      <trkpt lat="45.77326" lon="7.2556">
        <ele>2075</ele>
        <time>2017-06-13T12:15:42Z</time>
      </trkpt>
      <trkpt lat="45.77333" lon="7.25553">
        <ele>2076</ele>
        <time>2017-06-13T12:15:44Z</time>
      </trkpt>
      <trkpt lat="45.77338" lon="7.25553">
        <ele>2064</ele>
        <time>2017-06-13T12:15:45Z</time>
      </trkpt>
      <trkpt lat="45.77343" lon="7.25555">
        <ele>2063</ele>
        <time>2017-06-13T12:15:46Z</time>
      </trkpt>
      <trkpt lat="45.77348" lon="7.25557">
        <ele>2063</ele>
        <time>2017-06-13T12:15:47Z</time>
      </trkpt>
      <trkpt lat="45.77351" lon="7.25558">
        <ele>2063</ele>
        <time>2017-06-13T12:15:48Z</time>
      </trkpt>
      <trkpt lat="45.77359" lon="7.25558">
        <ele>2062</ele>
        <time>2017-06-13T12:15:50Z</time>
      </trkpt>
      <trkpt lat="45.77362" lon="7.25558">
        <ele>2061</ele>
        <time>2017-06-13T12:15:51Z</time>
      </trkpt>
      <trkpt lat="45.77363" lon="7.25557">
        <ele>2061</ele>
        <time>2017-06-13T12:15:52Z</time>
      </trkpt>
      <trkpt lat="45.77366" lon="7.25555">
        <ele>2061</ele>
        <time>2017-06-13T12:15:53Z</time>
      </trkpt>
      <trkpt lat="45.77375" lon="7.25554">
        <ele>2060</ele>
        <time>2017-06-13T12:15:55Z</time>
      </trkpt>
      <trkpt lat="45.77381" lon="7.25557">
        <ele>2058</ele>
        <time>2017-06-13T12:15:57Z</time>
      </trkpt>
      <trkpt lat="45.77383" lon="7.25559">
        <ele>2058</ele>
        <time>2017-06-13T12:15:58Z</time>
      </trkpt>
      <trkpt lat="45.77386" lon="7.2556">
        <ele>2057</ele>
        <time>2017-06-13T12:15:59Z</time>
      </trkpt>
      <trkpt lat="45.77392" lon="7.25564">
        <ele>2055</ele>
        <time>2017-06-13T12:16:01Z</time>
      </trkpt>
      <trkpt lat="45.77399" lon="7.25561">
        <ele>2055</ele>
        <time>2017-06-13T12:16:03Z</time>
      </trkpt>
      <trkpt lat="45.77405" lon="7.25558">
        <ele>2054</ele>
        <time>2017-06-13T12:16:05Z</time>
      </trkpt>
      <trkpt lat="45.77409" lon="7.25558">
        <ele>2054</ele>
        <time>2017-06-13T12:16:07Z</time>
      </trkpt>
      <trkpt lat="45.77411" lon="7.25559">
        <ele>2053</ele>
        <time>2017-06-13T12:16:08Z</time>
      </trkpt>
      <trkpt lat="45.77415" lon="7.25558">
        <ele>2053</ele>
        <time>2017-06-13T12:16:11Z</time>
      </trkpt>
      <trkpt lat="45.77417" lon="7.25555">
        <ele>2039</ele>
        <time>2017-06-13T12:16:13Z</time>
      </trkpt>
      <trkpt lat="45.77421" lon="7.2555">
        <ele>2039</ele>
        <time>2017-06-13T12:16:15Z</time>
      </trkpt>
      <trkpt lat="45.77425" lon="7.25542">
        <ele>2040</ele>
        <time>2017-06-13T12:16:17Z</time>
      </trkpt>
      <trkpt lat="45.77427" lon="7.25536">
        <ele>2041</ele>
        <time>2017-06-13T12:16:18Z</time>
      </trkpt>
      <trkpt lat="45.77429" lon="7.2553">
        <ele>2041</ele>
        <time>2017-06-13T12:16:19Z</time>
      </trkpt>
      <trkpt lat="45.77434" lon="7.25526">
        <ele>2041</ele>
        <time>2017-06-13T12:16:20Z</time>
      </trkpt>
      <trkpt lat="45.7744" lon="7.25523">
        <ele>2041</ele>
        <time>2017-06-13T12:16:21Z</time>
      </trkpt>
      <trkpt lat="45.77455" lon="7.25513">
        <ele>2038</ele>
        <time>2017-06-13T12:16:23Z</time>
      </trkpt>
      <trkpt lat="45.77462" lon="7.25508">
        <ele>2037</ele>
        <time>2017-06-13T12:16:24Z</time>
      </trkpt>
      <trkpt lat="45.77469" lon="7.25504">
        <ele>2035</ele>
        <time>2017-06-13T12:16:25Z</time>
      </trkpt>
      <trkpt lat="45.77477" lon="7.25498">
        <ele>2040</ele>
        <time>2017-06-13T12:16:27Z</time>
      </trkpt>
      <trkpt lat="45.7749" lon="7.25486">
        <ele>2038</ele>
        <time>2017-06-13T12:16:33Z</time>
      </trkpt>
      <trkpt lat="45.77493" lon="7.25482">
        <ele>2038</ele>
        <time>2017-06-13T12:16:39Z</time>
      </trkpt>
      <trkpt lat="45.77493" lon="7.25484">
        <ele>2038</ele>
        <time>2017-06-13T12:16:55Z</time>
      </trkpt>
      <trkpt lat="45.77493" lon="7.25497">
        <ele>2033</ele>
        <time>2017-06-13T12:17:22Z</time>
      </trkpt>
      <trkpt lat="45.77489" lon="7.25496">
        <ele>2035</ele>
        <time>2017-06-13T12:17:34Z</time>
      </trkpt>
      <trkpt lat="45.77489" lon="7.25502">
        <ele>2031</ele>
        <time>2017-06-13T12:17:59Z</time>
      </trkpt>
      <trkpt lat="45.7749" lon="7.255">
        <ele>2035</ele>
        <time>2017-06-13T12:18:50Z</time>
      </trkpt>
      <trkpt lat="45.77503" lon="7.25482">
        <ele>2027</ele>
        <time>2017-06-13T12:19:47Z</time>
      </trkpt>
      <trkpt lat="45.77499" lon="7.25469">
        <ele>2041</ele>
        <time>2017-06-13T12:20:12Z</time>
      </trkpt>
      <trkpt lat="45.77501" lon="7.25463">
        <ele>2027</ele>
        <time>2017-06-13T12:20:15Z</time>
      </trkpt>
      <trkpt lat="45.77503" lon="7.25462">
        <ele>2027</ele>
        <time>2017-06-13T12:20:16Z</time>
      </trkpt>
      <trkpt lat="45.77506" lon="7.25461">
        <ele>2027</ele>
        <time>2017-06-13T12:20:17Z</time>
      </trkpt>
      <trkpt lat="45.77511" lon="7.2546">
        <ele>2027</ele>
        <time>2017-06-13T12:20:18Z</time>
      </trkpt>
      <trkpt lat="45.77518" lon="7.25462">
        <ele>2027</ele>
        <time>2017-06-13T12:20:19Z</time>
      </trkpt>
      <trkpt lat="45.77527" lon="7.25464">
        <ele>2026</ele>
        <time>2017-06-13T12:20:20Z</time>
      </trkpt>
      <trkpt lat="45.77534" lon="7.25466">
        <ele>2025</ele>
        <time>2017-06-13T12:20:21Z</time>
      </trkpt>
      <trkpt lat="45.77539" lon="7.25468">
        <ele>2024</ele>
        <time>2017-06-13T12:20:22Z</time>
      </trkpt>
      <trkpt lat="45.77542" lon="7.25472">
        <ele>2023</ele>
        <time>2017-06-13T12:20:23Z</time>
      </trkpt>
      <trkpt lat="45.77544" lon="7.2548">
        <ele>2023</ele>
        <time>2017-06-13T12:20:24Z</time>
      </trkpt>
      <trkpt lat="45.77549" lon="7.25488">
        <ele>2021</ele>
        <time>2017-06-13T12:20:26Z</time>
      </trkpt>
      <trkpt lat="45.77552" lon="7.2549">
        <ele>2020</ele>
        <time>2017-06-13T12:20:28Z</time>
      </trkpt>
      <trkpt lat="45.77559" lon="7.25523">
        <ele>2009</ele>
        <time>2017-06-13T12:21:24Z</time>
      </trkpt>
      <trkpt lat="45.77551" lon="7.25544">
        <ele>2009</ele>
        <time>2017-06-13T13:47:29Z</time>
      </trkpt>
      <trkpt lat="45.77557" lon="7.25557">
        <ele>2007</ele>
        <time>2017-06-13T13:47:32Z</time>
      </trkpt>
      <trkpt lat="45.77559" lon="7.25563">
        <ele>2005</ele>
        <time>2017-06-13T13:47:33Z</time>
      </trkpt>
      <trkpt lat="45.77561" lon="7.2557">
        <ele>2004</ele>
        <time>2017-06-13T13:47:34Z</time>
      </trkpt>
      <trkpt lat="45.77573" lon="7.25594">
        <ele>1992</ele>
        <time>2017-06-13T13:47:37Z</time>
      </trkpt>
      <trkpt lat="45.77577" lon="7.25603">
        <ele>1992</ele>
        <time>2017-06-13T13:47:38Z</time>
      </trkpt>
      <trkpt lat="45.77582" lon="7.25613">
        <ele>1991</ele>
        <time>2017-06-13T13:47:39Z</time>
      </trkpt>
      <trkpt lat="45.77586" lon="7.25622">
        <ele>1975</ele>
        <time>2017-06-13T13:47:40Z</time>
      </trkpt>
      <trkpt lat="45.77588" lon="7.25633">
        <ele>1973</ele>
        <time>2017-06-13T13:47:41Z</time>
      </trkpt>
      <trkpt lat="45.7759" lon="7.25644">
        <ele>1972</ele>
        <time>2017-06-13T13:47:42Z</time>
      </trkpt>
      <trkpt lat="45.7759" lon="7.25644">
        <ele>1972</ele>
        <time>2017-06-13T13:47:42Z</time>
      </trkpt>
      <trkpt lat="45.77591" lon="7.25654">
        <ele>1971</ele>
        <time>2017-06-13T13:47:43Z</time>
      </trkpt>
      <trkpt lat="45.77591" lon="7.2566">
        <ele>1971</ele>
        <time>2017-06-13T13:47:44Z</time>
      </trkpt>
      <trkpt lat="45.77591" lon="7.25665">
        <ele>1971</ele>
        <time>2017-06-13T13:47:45Z</time>
      </trkpt>
      <trkpt lat="45.77589" lon="7.25669">
        <ele>1965</ele>
        <time>2017-06-13T13:57:20Z</time>
      </trkpt>
      <trkpt lat="45.77586" lon="7.25676">
        <ele>1963</ele>
        <time>2017-06-13T13:57:25Z</time>
      </trkpt>
      <trkpt lat="45.77583" lon="7.2568">
        <ele>1970</ele>
        <time>2017-06-13T13:57:28Z</time>
      </trkpt>
      <trkpt lat="45.77582" lon="7.25682">
        <ele>1969</ele>
        <time>2017-06-13T13:57:29Z</time>
      </trkpt>
      <trkpt lat="45.77583" lon="7.25685">
        <ele>1969</ele>
        <time>2017-06-13T13:57:30Z</time>
      </trkpt>
      <trkpt lat="45.77585" lon="7.25688">
        <ele>1957</ele>
        <time>2017-06-13T13:57:31Z</time>
      </trkpt>
      <trkpt lat="45.77586" lon="7.25691">
        <ele>1955</ele>
        <time>2017-06-13T13:57:32Z</time>
      </trkpt>
      <trkpt lat="45.77586" lon="7.25694">
        <ele>1954</ele>
        <time>2017-06-13T13:57:33Z</time>
      </trkpt>
      <trkpt lat="45.77586" lon="7.25696">
        <ele>1953</ele>
        <time>2017-06-13T13:57:34Z</time>
      </trkpt>
      <trkpt lat="45.77585" lon="7.257">
        <ele>1952</ele>
        <time>2017-06-13T13:57:35Z</time>
      </trkpt>
      <trkpt lat="45.77582" lon="7.25705">
        <ele>1965</ele>
        <time>2017-06-13T13:57:36Z</time>
      </trkpt>
      <trkpt lat="45.77578" lon="7.25713">
        <ele>1964</ele>
        <time>2017-06-13T13:57:37Z</time>
      </trkpt>
      <trkpt lat="45.77574" lon="7.2572">
        <ele>1962</ele>
        <time>2017-06-13T13:57:38Z</time>
      </trkpt>
      <trkpt lat="45.7757" lon="7.25726">
        <ele>1961</ele>
        <time>2017-06-13T13:57:39Z</time>
      </trkpt>
      <trkpt lat="45.77571" lon="7.25731">
        <ele>1959</ele>
        <time>2017-06-13T13:57:40Z</time>
      </trkpt>
      <trkpt lat="45.77574" lon="7.25736">
        <ele>1956</ele>
        <time>2017-06-13T13:57:41Z</time>
      </trkpt>
      <trkpt lat="45.77579" lon="7.25743">
        <ele>1951</ele>
        <time>2017-06-13T13:57:42Z</time>
      </trkpt>
      <trkpt lat="45.77584" lon="7.2575">
        <ele>1943</ele>
        <time>2017-06-13T13:57:43Z</time>
      </trkpt>
      <trkpt lat="45.7759" lon="7.25753">
        <ele>1939</ele>
        <time>2017-06-13T13:57:44Z</time>
      </trkpt>
      <trkpt lat="45.77596" lon="7.25757">
        <ele>1935</ele>
        <time>2017-06-13T13:57:45Z</time>
      </trkpt>
      <trkpt lat="45.77601" lon="7.25762">
        <ele>1932</ele>
        <time>2017-06-13T13:57:46Z</time>
      </trkpt>
      <trkpt lat="45.77605" lon="7.25768">
        <ele>1930</ele>
        <time>2017-06-13T13:57:47Z</time>
      </trkpt>
      <trkpt lat="45.77609" lon="7.25775">
        <ele>1928</ele>
        <time>2017-06-13T13:57:48Z</time>
      </trkpt>
      <trkpt lat="45.77613" lon="7.25782">
        <ele>1926</ele>
        <time>2017-06-13T13:57:49Z</time>
      </trkpt>
      <trkpt lat="45.77616" lon="7.2579">
        <ele>1924</ele>
        <time>2017-06-13T13:57:50Z</time>
      </trkpt>
      <trkpt lat="45.7762" lon="7.25797">
        <ele>1923</ele>
        <time>2017-06-13T13:57:51Z</time>
      </trkpt>
      <trkpt lat="45.77623" lon="7.25802">
        <ele>1922</ele>
        <time>2017-06-13T13:57:52Z</time>
      </trkpt>
      <trkpt lat="45.77626" lon="7.25806">
        <ele>1921</ele>
        <time>2017-06-13T13:57:53Z</time>
      </trkpt>
      <trkpt lat="45.77629" lon="7.2581">
        <ele>1920</ele>
        <time>2017-06-13T13:57:54Z</time>
      </trkpt>
      <trkpt lat="45.77632" lon="7.25816">
        <ele>1919</ele>
        <time>2017-06-13T13:57:55Z</time>
      </trkpt>
      <trkpt lat="45.77633" lon="7.25822">
        <ele>1918</ele>
        <time>2017-06-13T13:57:56Z</time>
      </trkpt>
      <trkpt lat="45.77632" lon="7.25827">
        <ele>1918</ele>
        <time>2017-06-13T13:57:57Z</time>
      </trkpt>
      <trkpt lat="45.77631" lon="7.25834">
        <ele>1910</ele>
        <time>2017-06-13T13:57:58Z</time>
      </trkpt>
      <trkpt lat="45.7763" lon="7.25842">
        <ele>1910</ele>
        <time>2017-06-13T13:57:59Z</time>
      </trkpt>
      <trkpt lat="45.77626" lon="7.25852">
        <ele>1910</ele>
        <time>2017-06-13T13:58:00Z</time>
      </trkpt>
      <trkpt lat="45.77625" lon="7.2586">
        <ele>1910</ele>
        <time>2017-06-13T13:58:01Z</time>
      </trkpt>
      <trkpt lat="45.77623" lon="7.25869">
        <ele>1910</ele>
        <time>2017-06-13T13:58:02Z</time>
      </trkpt>
      <trkpt lat="45.77623" lon="7.2588">
        <ele>1909</ele>
        <time>2017-06-13T13:58:03Z</time>
      </trkpt>
      <trkpt lat="45.77624" lon="7.25892">
        <ele>1908</ele>
        <time>2017-06-13T13:58:04Z</time>
      </trkpt>
      <trkpt lat="45.77625" lon="7.25904">
        <ele>1907</ele>
        <time>2017-06-13T13:58:05Z</time>
      </trkpt>
      <trkpt lat="45.77627" lon="7.25918">
        <ele>1900</ele>
        <time>2017-06-13T13:58:06Z</time>
      </trkpt>
      <trkpt lat="45.77629" lon="7.25931">
        <ele>1899</ele>
        <time>2017-06-13T13:58:07Z</time>
      </trkpt>
      <trkpt lat="45.7763" lon="7.25944">
        <ele>1899</ele>
        <time>2017-06-13T13:58:08Z</time>
      </trkpt>
      <trkpt lat="45.77631" lon="7.25957">
        <ele>1898</ele>
        <time>2017-06-13T13:58:09Z</time>
      </trkpt>
      <trkpt lat="45.77632" lon="7.2597">
        <ele>1897</ele>
        <time>2017-06-13T13:58:10Z</time>
      </trkpt>
      <trkpt lat="45.77631" lon="7.25983">
        <ele>1896</ele>
        <time>2017-06-13T13:58:11Z</time>
      </trkpt>
      <trkpt lat="45.77631" lon="7.25996">
        <ele>1895</ele>
        <time>2017-06-13T13:58:12Z</time>
      </trkpt>
      <trkpt lat="45.77631" lon="7.26006">
        <ele>1887</ele>
        <time>2017-06-13T13:58:13Z</time>
      </trkpt>
      <trkpt lat="45.77632" lon="7.26013">
        <ele>1887</ele>
        <time>2017-06-13T13:58:14Z</time>
      </trkpt>
      <trkpt lat="45.77632" lon="7.26024">
        <ele>1886</ele>
        <time>2017-06-13T13:58:15Z</time>
      </trkpt>
      <trkpt lat="45.77635" lon="7.26034">
        <ele>1885</ele>
        <time>2017-06-13T13:58:16Z</time>
      </trkpt>
      <trkpt lat="45.77638" lon="7.26044">
        <ele>1884</ele>
        <time>2017-06-13T13:58:17Z</time>
      </trkpt>
      <trkpt lat="45.7764" lon="7.26053">
        <ele>1883</ele>
        <time>2017-06-13T13:58:18Z</time>
      </trkpt>
      <trkpt lat="45.77641" lon="7.26062">
        <ele>1882</ele>
        <time>2017-06-13T13:58:19Z</time>
      </trkpt>
      <trkpt lat="45.77642" lon="7.2607">
        <ele>1881</ele>
        <time>2017-06-13T13:58:20Z</time>
      </trkpt>
      <trkpt lat="45.77641" lon="7.26078">
        <ele>1880</ele>
        <time>2017-06-13T13:58:21Z</time>
      </trkpt>
      <trkpt lat="45.77641" lon="7.26086">
        <ele>1871</ele>
        <time>2017-06-13T13:58:22Z</time>
      </trkpt>
      <trkpt lat="45.7764" lon="7.26096">
        <ele>1871</ele>
        <time>2017-06-13T13:58:23Z</time>
      </trkpt>
      <trkpt lat="45.7764" lon="7.26105">
        <ele>1870</ele>
        <time>2017-06-13T13:58:24Z</time>
      </trkpt>
      <trkpt lat="45.77639" lon="7.26109">
        <ele>1870</ele>
        <time>2017-06-13T13:58:25Z</time>
      </trkpt>
      <trkpt lat="45.7764" lon="7.26109">
        <ele>1870</ele>
        <time>2017-06-13T13:58:27Z</time>
      </trkpt>
      <trkpt lat="45.77642" lon="7.26113">
        <ele>1869</ele>
        <time>2017-06-13T13:59:07Z</time>
      </trkpt>
      <trkpt lat="45.77643" lon="7.26114">
        <ele>1869</ele>
        <time>2017-06-13T13:59:12Z</time>
      </trkpt>
      <trkpt lat="45.77641" lon="7.26124">
        <ele>1868</ele>
        <time>2017-06-13T13:59:14Z</time>
      </trkpt>
      <trkpt lat="45.77641" lon="7.26131">
        <ele>1867</ele>
        <time>2017-06-13T13:59:15Z</time>
      </trkpt>
      <trkpt lat="45.7764" lon="7.26141">
        <ele>1866</ele>
        <time>2017-06-13T13:59:16Z</time>
      </trkpt>
      <trkpt lat="45.77639" lon="7.26151">
        <ele>1865</ele>
        <time>2017-06-13T13:59:17Z</time>
      </trkpt>
      <trkpt lat="45.7764" lon="7.26161">
        <ele>1864</ele>
        <time>2017-06-13T13:59:18Z</time>
      </trkpt>
      <trkpt lat="45.77642" lon="7.26171">
        <ele>1853</ele>
        <time>2017-06-13T13:59:19Z</time>
      </trkpt>
      <trkpt lat="45.77645" lon="7.26192">
        <ele>1852</ele>
        <time>2017-06-13T13:59:21Z</time>
      </trkpt>
      <trkpt lat="45.77646" lon="7.26203">
        <ele>1850</ele>
        <time>2017-06-13T13:59:22Z</time>
      </trkpt>
      <trkpt lat="45.77648" lon="7.26217">
        <ele>1848</ele>
        <time>2017-06-13T13:59:23Z</time>
      </trkpt>
      <trkpt lat="45.77649" lon="7.26231">
        <ele>1845</ele>
        <time>2017-06-13T13:59:24Z</time>
      </trkpt>
      <trkpt lat="45.7765" lon="7.26246">
        <ele>1842</ele>
        <time>2017-06-13T13:59:25Z</time>
      </trkpt>
      <trkpt lat="45.77651" lon="7.26258">
        <ele>1834</ele>
        <time>2017-06-13T13:59:26Z</time>
      </trkpt>
      <trkpt lat="45.77652" lon="7.2627">
        <ele>1834</ele>
        <time>2017-06-13T13:59:27Z</time>
      </trkpt>
      <trkpt lat="45.77655" lon="7.26279">
        <ele>1834</ele>
        <time>2017-06-13T13:59:28Z</time>
      </trkpt>
      <trkpt lat="45.77656" lon="7.26292">
        <ele>1833</ele>
        <time>2017-06-13T13:59:29Z</time>
      </trkpt>
      <trkpt lat="45.77657" lon="7.26303">
        <ele>1831</ele>
        <time>2017-06-13T13:59:30Z</time>
      </trkpt>
      <trkpt lat="45.7766" lon="7.26311">
        <ele>1829</ele>
        <time>2017-06-13T13:59:31Z</time>
      </trkpt>
      <trkpt lat="45.77662" lon="7.26319">
        <ele>1826</ele>
        <time>2017-06-13T13:59:32Z</time>
      </trkpt>
      <trkpt lat="45.77663" lon="7.26325">
        <ele>1824</ele>
        <time>2017-06-13T13:59:33Z</time>
      </trkpt>
      <trkpt lat="45.77666" lon="7.26328">
        <ele>1822</ele>
        <time>2017-06-13T13:59:34Z</time>
      </trkpt>
      <trkpt lat="45.77667" lon="7.26337">
        <ele>1815</ele>
        <time>2017-06-13T13:59:35Z</time>
      </trkpt>
      <trkpt lat="45.77669" lon="7.26344">
        <ele>1811</ele>
        <time>2017-06-13T13:59:36Z</time>
      </trkpt>
      <trkpt lat="45.77673" lon="7.26353">
        <ele>1807</ele>
        <time>2017-06-13T13:59:37Z</time>
      </trkpt>
      <trkpt lat="45.77676" lon="7.26359">
        <ele>1805</ele>
        <time>2017-06-13T13:59:38Z</time>
      </trkpt>
      <trkpt lat="45.7768" lon="7.26362">
        <ele>1804</ele>
        <time>2017-06-13T13:59:39Z</time>
      </trkpt>
      <trkpt lat="45.77682" lon="7.26363">
        <ele>1803</ele>
        <time>2017-06-13T13:59:40Z</time>
      </trkpt>
      <trkpt lat="45.77683" lon="7.26373">
        <ele>1802</ele>
        <time>2017-06-13T13:59:42Z</time>
      </trkpt>
      <trkpt lat="45.7766" lon="7.26397">
        <ele>1815</ele>
        <time>2017-06-13T13:59:52Z</time>
      </trkpt>
      <trkpt lat="45.7765" lon="7.26422">
        <ele>1809</ele>
        <time>2017-06-13T14:00:02Z</time>
      </trkpt>
      <trkpt lat="45.77645" lon="7.26434">
        <ele>1810</ele>
        <time>2017-06-13T14:00:05Z</time>
      </trkpt>
      <trkpt lat="45.77646" lon="7.26446">
        <ele>1810</ele>
        <time>2017-06-13T14:00:09Z</time>
      </trkpt>
      <trkpt lat="45.77649" lon="7.26453">
        <ele>1810</ele>
        <time>2017-06-13T14:00:11Z</time>
      </trkpt>
      <trkpt lat="45.7765" lon="7.26465">
        <ele>1808</ele>
        <time>2017-06-13T14:00:13Z</time>
      </trkpt>
      <trkpt lat="45.77649" lon="7.26475">
        <ele>1807</ele>
        <time>2017-06-13T14:00:14Z</time>
      </trkpt>
      <trkpt lat="45.7765" lon="7.26486">
        <ele>1806</ele>
        <time>2017-06-13T14:00:15Z</time>
      </trkpt>
      <trkpt lat="45.7765" lon="7.26498">
        <ele>1804</ele>
        <time>2017-06-13T14:00:16Z</time>
      </trkpt>
      <trkpt lat="45.77651" lon="7.26508">
        <ele>1798</ele>
        <time>2017-06-13T14:00:17Z</time>
      </trkpt>
      <trkpt lat="45.77652" lon="7.26516">
        <ele>1798</ele>
        <time>2017-06-13T14:00:18Z</time>
      </trkpt>
      <trkpt lat="45.77653" lon="7.26525">
        <ele>1797</ele>
        <time>2017-06-13T14:00:19Z</time>
      </trkpt>
      <trkpt lat="45.77654" lon="7.26536">
        <ele>1796</ele>
        <time>2017-06-13T14:00:20Z</time>
      </trkpt>
      <trkpt lat="45.77655" lon="7.26548">
        <ele>1795</ele>
        <time>2017-06-13T14:00:21Z</time>
      </trkpt>
      <trkpt lat="45.77655" lon="7.26562">
        <ele>1792</ele>
        <time>2017-06-13T14:00:22Z</time>
      </trkpt>
      <trkpt lat="45.77654" lon="7.26576">
        <ele>1789</ele>
        <time>2017-06-13T14:00:23Z</time>
      </trkpt>
      <trkpt lat="45.77654" lon="7.26594">
        <ele>1782</ele>
        <time>2017-06-13T14:00:24Z</time>
      </trkpt>
      <trkpt lat="45.77653" lon="7.26612">
        <ele>1781</ele>
        <time>2017-06-13T14:00:25Z</time>
      </trkpt>
      <trkpt lat="45.77651" lon="7.26628">
        <ele>1780</ele>
        <time>2017-06-13T14:00:26Z</time>
      </trkpt>
      <trkpt lat="45.7765" lon="7.26646">
        <ele>1777</ele>
        <time>2017-06-13T14:00:27Z</time>
      </trkpt>
      <trkpt lat="45.77647" lon="7.2666">
        <ele>1775</ele>
        <time>2017-06-13T14:00:28Z</time>
      </trkpt>
      <trkpt lat="45.77646" lon="7.26674">
        <ele>1768</ele>
        <time>2017-06-13T14:00:29Z</time>
      </trkpt>
      <trkpt lat="45.77648" lon="7.26689">
        <ele>1768</ele>
        <time>2017-06-13T14:00:30Z</time>
      </trkpt>
      <trkpt lat="45.77654" lon="7.26711">
        <ele>1767</ele>
        <time>2017-06-13T14:00:32Z</time>
      </trkpt>
      <trkpt lat="45.77662" lon="7.26738">
        <ele>1760</ele>
        <time>2017-06-13T14:00:35Z</time>
      </trkpt>
      <trkpt lat="45.77669" lon="7.26746">
        <ele>1753</ele>
        <time>2017-06-13T14:00:37Z</time>
      </trkpt>
      <trkpt lat="45.77671" lon="7.26758">
        <ele>1750</ele>
        <time>2017-06-13T14:00:38Z</time>
      </trkpt>
      <trkpt lat="45.77673" lon="7.2677">
        <ele>1747</ele>
        <time>2017-06-13T14:00:39Z</time>
      </trkpt>
      <trkpt lat="45.77678" lon="7.26799">
        <ele>1745</ele>
        <time>2017-06-13T14:00:42Z</time>
      </trkpt>
      <trkpt lat="45.77684" lon="7.26824">
        <ele>1746</ele>
        <time>2017-06-13T14:00:45Z</time>
      </trkpt>
      <trkpt lat="45.77688" lon="7.26841">
        <ele>1745</ele>
        <time>2017-06-13T14:00:47Z</time>
      </trkpt>
      <trkpt lat="45.77694" lon="7.26856">
        <ele>1743</ele>
        <time>2017-06-13T14:00:49Z</time>
      </trkpt>
      <trkpt lat="45.77698" lon="7.26866">
        <ele>1742</ele>
        <time>2017-06-13T14:00:50Z</time>
      </trkpt>
      <trkpt lat="45.77701" lon="7.26875">
        <ele>1741</ele>
        <time>2017-06-13T14:00:51Z</time>
      </trkpt>
      <trkpt lat="45.77707" lon="7.269">
        <ele>1741</ele>
        <time>2017-06-13T14:00:53Z</time>
      </trkpt>
      <trkpt lat="45.77715" lon="7.26923">
        <ele>1736</ele>
        <time>2017-06-13T14:00:55Z</time>
      </trkpt>
      <trkpt lat="45.77718" lon="7.26936">
        <ele>1736</ele>
        <time>2017-06-13T14:00:56Z</time>
      </trkpt>
      <trkpt lat="45.77721" lon="7.2695">
        <ele>1735</ele>
        <time>2017-06-13T14:00:57Z</time>
      </trkpt>
      <trkpt lat="45.77724" lon="7.26963">
        <ele>1735</ele>
        <time>2017-06-13T14:00:58Z</time>
      </trkpt>
      <trkpt lat="45.77728" lon="7.26991">
        <ele>1733</ele>
        <time>2017-06-13T14:01:00Z</time>
      </trkpt>
      <trkpt lat="45.77731" lon="7.26999">
        <ele>1733</ele>
        <time>2017-06-13T14:01:01Z</time>
      </trkpt>
      <trkpt lat="45.77733" lon="7.27007">
        <ele>1726</ele>
        <time>2017-06-13T14:01:02Z</time>
      </trkpt>
      <trkpt lat="45.77738" lon="7.27005">
        <ele>1728</ele>
        <time>2017-06-13T14:01:04Z</time>
      </trkpt>
      <trkpt lat="45.77736" lon="7.27005">
        <ele>1727</ele>
        <time>2017-06-13T14:01:30Z</time>
      </trkpt>
      <trkpt lat="45.77736" lon="7.27004">
        <ele>1727</ele>
        <time>2017-06-13T14:02:17Z</time>
      </trkpt>
      <trkpt lat="45.77736" lon="7.27004">
        <ele>1727</ele>
        <time>2017-06-13T14:03:01Z</time>
      </trkpt>
      <trkpt lat="45.7774" lon="7.27009">
        <ele>1727</ele>
        <time>2017-06-13T14:04:46Z</time>
      </trkpt>
      <trkpt lat="45.77743" lon="7.27012">
        <ele>1727</ele>
        <time>2017-06-13T14:04:47Z</time>
      </trkpt>
      <trkpt lat="45.77745" lon="7.27015">
        <ele>1727</ele>
        <time>2017-06-13T14:04:48Z</time>
      </trkpt>
      <trkpt lat="45.77753" lon="7.27025">
        <ele>1723</ele>
        <time>2017-06-13T14:04:49Z</time>
      </trkpt>
      <trkpt lat="45.7776" lon="7.27034">
        <ele>1721</ele>
        <time>2017-06-13T14:04:50Z</time>
      </trkpt>
      <trkpt lat="45.77767" lon="7.27046">
        <ele>1720</ele>
        <time>2017-06-13T14:04:51Z</time>
      </trkpt>
      <trkpt lat="45.77785" lon="7.27064">
        <ele>1717</ele>
        <time>2017-06-13T14:04:54Z</time>
      </trkpt>
      <trkpt lat="45.77789" lon="7.27067">
        <ele>1717</ele>
        <time>2017-06-13T14:04:56Z</time>
      </trkpt>
      <trkpt lat="45.77791" lon="7.27075">
        <ele>1717</ele>
        <time>2017-06-13T14:05:03Z</time>
      </trkpt>
      <trkpt lat="45.77798" lon="7.27093">
        <ele>1708</ele>
        <time>2017-06-13T14:05:06Z</time>
      </trkpt>
      <trkpt lat="45.77803" lon="7.27101">
        <ele>1707</ele>
        <time>2017-06-13T14:05:07Z</time>
      </trkpt>
      <trkpt lat="45.7781" lon="7.27109">
        <ele>1706</ele>
        <time>2017-06-13T14:05:08Z</time>
      </trkpt>
      <trkpt lat="45.77817" lon="7.27116">
        <ele>1705</ele>
        <time>2017-06-13T14:05:09Z</time>
      </trkpt>
      <trkpt lat="45.77824" lon="7.27124">
        <ele>1704</ele>
        <time>2017-06-13T14:05:10Z</time>
      </trkpt>
      <trkpt lat="45.77832" lon="7.27132">
        <ele>1703</ele>
        <time>2017-06-13T14:05:11Z</time>
      </trkpt>
      <trkpt lat="45.77841" lon="7.27138">
        <ele>1692</ele>
        <time>2017-06-13T14:05:12Z</time>
      </trkpt>
      <trkpt lat="45.77849" lon="7.27146">
        <ele>1691</ele>
        <time>2017-06-13T14:05:13Z</time>
      </trkpt>
      <trkpt lat="45.77859" lon="7.27154">
        <ele>1690</ele>
        <time>2017-06-13T14:05:14Z</time>
      </trkpt>
      <trkpt lat="45.77869" lon="7.27162">
        <ele>1688</ele>
        <time>2017-06-13T14:05:15Z</time>
      </trkpt>
      <trkpt lat="45.77875" lon="7.27172">
        <ele>1678</ele>
        <time>2017-06-13T14:05:16Z</time>
      </trkpt>
      <trkpt lat="45.7788" lon="7.27184">
        <ele>1677</ele>
        <time>2017-06-13T14:05:17Z</time>
      </trkpt>
      <trkpt lat="45.77886" lon="7.27195">
        <ele>1675</ele>
        <time>2017-06-13T14:05:18Z</time>
      </trkpt>
      <trkpt lat="45.77891" lon="7.27205">
        <ele>1674</ele>
        <time>2017-06-13T14:05:19Z</time>
      </trkpt>
      <trkpt lat="45.77896" lon="7.27213">
        <ele>1673</ele>
        <time>2017-06-13T14:05:20Z</time>
      </trkpt>
      <trkpt lat="45.77901" lon="7.27219">
        <ele>1672</ele>
        <time>2017-06-13T14:05:21Z</time>
      </trkpt>
      <trkpt lat="45.77908" lon="7.27219">
        <ele>1671</ele>
        <time>2017-06-13T14:05:22Z</time>
      </trkpt>
      <trkpt lat="45.77916" lon="7.27217">
        <ele>1671</ele>
        <time>2017-06-13T14:05:23Z</time>
      </trkpt>
      <trkpt lat="45.77923" lon="7.27209">
        <ele>1662</ele>
        <time>2017-06-13T14:05:24Z</time>
      </trkpt>
      <trkpt lat="45.77927" lon="7.272">
        <ele>1663</ele>
        <time>2017-06-13T14:05:25Z</time>
      </trkpt>
      <trkpt lat="45.7793" lon="7.27196">
        <ele>1663</ele>
        <time>2017-06-13T14:05:26Z</time>
      </trkpt>
      <trkpt lat="45.77935" lon="7.27193">
        <ele>1663</ele>
        <time>2017-06-13T14:05:27Z</time>
      </trkpt>
      <trkpt lat="45.77938" lon="7.2719">
        <ele>1663</ele>
        <time>2017-06-13T14:05:28Z</time>
      </trkpt>
      <trkpt lat="45.7794" lon="7.27191">
        <ele>1662</ele>
        <time>2017-06-13T14:05:29Z</time>
      </trkpt>
      <trkpt lat="45.77941" lon="7.27194">
        <ele>1662</ele>
        <time>2017-06-13T14:05:31Z</time>
      </trkpt>
      <trkpt lat="45.77946" lon="7.27198">
        <ele>1661</ele>
        <time>2017-06-13T14:05:33Z</time>
      </trkpt>
      <trkpt lat="45.77955" lon="7.27206">
        <ele>1660</ele>
        <time>2017-06-13T14:05:35Z</time>
      </trkpt>
      <trkpt lat="45.77959" lon="7.2721">
        <ele>1660</ele>
        <time>2017-06-13T14:05:36Z</time>
      </trkpt>
      <trkpt lat="45.7796" lon="7.27215">
        <ele>1659</ele>
        <time>2017-06-13T14:05:37Z</time>
      </trkpt>
      <trkpt lat="45.77962" lon="7.2722">
        <ele>1659</ele>
        <time>2017-06-13T14:05:38Z</time>
      </trkpt>
      <trkpt lat="45.77963" lon="7.27223">
        <ele>1659</ele>
        <time>2017-06-13T14:05:39Z</time>
      </trkpt>
      <trkpt lat="45.77966" lon="7.27227">
        <ele>1658</ele>
        <time>2017-06-13T14:05:40Z</time>
      </trkpt>
      <trkpt lat="45.77968" lon="7.27235">
        <ele>1658</ele>
        <time>2017-06-13T14:05:41Z</time>
      </trkpt>
      <trkpt lat="45.77976" lon="7.27262">
        <ele>1651</ele>
        <time>2017-06-13T14:05:44Z</time>
      </trkpt>
      <trkpt lat="45.77975" lon="7.27277">
        <ele>1650</ele>
        <time>2017-06-13T14:05:45Z</time>
      </trkpt>
      <trkpt lat="45.77974" lon="7.27287">
        <ele>1650</ele>
        <time>2017-06-13T14:05:46Z</time>
      </trkpt>
      <trkpt lat="45.77975" lon="7.27298">
        <ele>1649</ele>
        <time>2017-06-13T14:05:47Z</time>
      </trkpt>
      <trkpt lat="45.77975" lon="7.27309">
        <ele>1648</ele>
        <time>2017-06-13T14:05:48Z</time>
      </trkpt>
      <trkpt lat="45.77975" lon="7.27319">
        <ele>1646</ele>
        <time>2017-06-13T14:05:49Z</time>
      </trkpt>
      <trkpt lat="45.77973" lon="7.2733">
        <ele>1646</ele>
        <time>2017-06-13T14:05:50Z</time>
      </trkpt>
      <trkpt lat="45.77972" lon="7.27338">
        <ele>1638</ele>
        <time>2017-06-13T14:05:51Z</time>
      </trkpt>
      <trkpt lat="45.77969" lon="7.27344">
        <ele>1638</ele>
        <time>2017-06-13T14:05:52Z</time>
      </trkpt>
      <trkpt lat="45.77966" lon="7.27349">
        <ele>1638</ele>
        <time>2017-06-13T14:05:53Z</time>
      </trkpt>
      <trkpt lat="45.77961" lon="7.27354">
        <ele>1638</ele>
        <time>2017-06-13T14:05:54Z</time>
      </trkpt>
      <trkpt lat="45.77956" lon="7.27366">
        <ele>1637</ele>
        <time>2017-06-13T14:05:55Z</time>
      </trkpt>
      <trkpt lat="45.77955" lon="7.2738">
        <ele>1636</ele>
        <time>2017-06-13T14:05:56Z</time>
      </trkpt>
      <trkpt lat="45.77954" lon="7.27389">
        <ele>1635</ele>
        <time>2017-06-13T14:05:57Z</time>
      </trkpt>
      <trkpt lat="45.77956" lon="7.27399">
        <ele>1634</ele>
        <time>2017-06-13T14:05:58Z</time>
      </trkpt>
      <trkpt lat="45.77958" lon="7.27405">
        <ele>1633</ele>
        <time>2017-06-13T14:05:59Z</time>
      </trkpt>
      <trkpt lat="45.77963" lon="7.27412">
        <ele>1633</ele>
        <time>2017-06-13T14:06:00Z</time>
      </trkpt>
      <trkpt lat="45.77968" lon="7.27416">
        <ele>1632</ele>
        <time>2017-06-13T14:06:01Z</time>
      </trkpt>
      <trkpt lat="45.77972" lon="7.27418">
        <ele>1620</ele>
        <time>2017-06-13T14:06:02Z</time>
      </trkpt>
      <trkpt lat="45.77974" lon="7.27419">
        <ele>1620</ele>
        <time>2017-06-13T14:06:03Z</time>
      </trkpt>
      <trkpt lat="45.77978" lon="7.27417">
        <ele>1620</ele>
        <time>2017-06-13T14:07:28Z</time>
      </trkpt>
      <trkpt lat="45.77978" lon="7.27418">
        <ele>1620</ele>
        <time>2017-06-13T14:09:27Z</time>
      </trkpt>
      <trkpt lat="45.77979" lon="7.27427">
        <ele>1619</ele>
        <time>2017-06-13T14:16:06Z</time>
      </trkpt>
      <trkpt lat="45.77979" lon="7.27432">
        <ele>1619</ele>
        <time>2017-06-13T14:16:08Z</time>
      </trkpt>
      <trkpt lat="45.77981" lon="7.27436">
        <ele>1618</ele>
        <time>2017-06-13T14:16:09Z</time>
      </trkpt>
      <trkpt lat="45.77982" lon="7.27447">
        <ele>1617</ele>
        <time>2017-06-13T14:16:11Z</time>
      </trkpt>
      <trkpt lat="45.77981" lon="7.27453">
        <ele>1616</ele>
        <time>2017-06-13T14:16:12Z</time>
      </trkpt>
      <trkpt lat="45.77979" lon="7.2746">
        <ele>1615</ele>
        <time>2017-06-13T14:16:13Z</time>
      </trkpt>
      <trkpt lat="45.77974" lon="7.27477">
        <ele>1612</ele>
        <time>2017-06-13T14:16:15Z</time>
      </trkpt>
      <trkpt lat="45.77966" lon="7.27487">
        <ele>1611</ele>
        <time>2017-06-13T14:16:16Z</time>
      </trkpt>
      <trkpt lat="45.7796" lon="7.27491">
        <ele>1611</ele>
        <time>2017-06-13T14:16:17Z</time>
      </trkpt>
      <trkpt lat="45.7795" lon="7.27498">
        <ele>1611</ele>
        <time>2017-06-13T14:16:19Z</time>
      </trkpt>
      <trkpt lat="45.77946" lon="7.27502">
        <ele>1596</ele>
        <time>2017-06-13T14:16:20Z</time>
      </trkpt>
      <trkpt lat="45.77942" lon="7.27505">
        <ele>1596</ele>
        <time>2017-06-13T14:16:21Z</time>
      </trkpt>
      <trkpt lat="45.77937" lon="7.2751">
        <ele>1596</ele>
        <time>2017-06-13T14:16:22Z</time>
      </trkpt>
      <trkpt lat="45.77931" lon="7.27516">
        <ele>1596</ele>
        <time>2017-06-13T14:16:23Z</time>
      </trkpt>
      <trkpt lat="45.77926" lon="7.27524">
        <ele>1594</ele>
        <time>2017-06-13T14:16:24Z</time>
      </trkpt>
      <trkpt lat="45.77922" lon="7.27534">
        <ele>1592</ele>
        <time>2017-06-13T14:16:25Z</time>
      </trkpt>
      <trkpt lat="45.77918" lon="7.27545">
        <ele>1589</ele>
        <time>2017-06-13T14:16:26Z</time>
      </trkpt>
      <trkpt lat="45.77914" lon="7.27556">
        <ele>1587</ele>
        <time>2017-06-13T14:16:27Z</time>
      </trkpt>
      <trkpt lat="45.77908" lon="7.27568">
        <ele>1584</ele>
        <time>2017-06-13T14:16:28Z</time>
      </trkpt>
      <trkpt lat="45.77903" lon="7.27578">
        <ele>1583</ele>
        <time>2017-06-13T14:16:29Z</time>
      </trkpt>
      <trkpt lat="45.77898" lon="7.27583">
        <ele>1571</ele>
        <time>2017-06-13T14:16:30Z</time>
      </trkpt>
      <trkpt lat="45.77894" lon="7.27591">
        <ele>1570</ele>
        <time>2017-06-13T14:16:31Z</time>
      </trkpt>
      <trkpt lat="45.7789" lon="7.27598">
        <ele>1569</ele>
        <time>2017-06-13T14:16:32Z</time>
      </trkpt>
      <trkpt lat="45.77885" lon="7.27604">
        <ele>1568</ele>
        <time>2017-06-13T14:16:33Z</time>
      </trkpt>
      <trkpt lat="45.77879" lon="7.27609">
        <ele>1568</ele>
        <time>2017-06-13T14:16:34Z</time>
      </trkpt>
      <trkpt lat="45.77872" lon="7.27614">
        <ele>1567</ele>
        <time>2017-06-13T14:16:35Z</time>
      </trkpt>
      <trkpt lat="45.77865" lon="7.27617">
        <ele>1567</ele>
        <time>2017-06-13T14:16:36Z</time>
      </trkpt>
      <trkpt lat="45.77857" lon="7.27619">
        <ele>1566</ele>
        <time>2017-06-13T14:16:37Z</time>
      </trkpt>
      <trkpt lat="45.77851" lon="7.27619">
        <ele>1566</ele>
        <time>2017-06-13T14:16:38Z</time>
      </trkpt>
      <trkpt lat="45.77845" lon="7.27622">
        <ele>1566</ele>
        <time>2017-06-13T14:16:39Z</time>
      </trkpt>
      <trkpt lat="45.77839" lon="7.27627">
        <ele>1564</ele>
        <time>2017-06-13T14:16:40Z</time>
      </trkpt>
      <trkpt lat="45.77835" lon="7.27635">
        <ele>1562</ele>
        <time>2017-06-13T14:16:41Z</time>
      </trkpt>
      <trkpt lat="45.7783" lon="7.27643">
        <ele>1554</ele>
        <time>2017-06-13T14:16:42Z</time>
      </trkpt>
      <trkpt lat="45.77825" lon="7.27651">
        <ele>1553</ele>
        <time>2017-06-13T14:16:43Z</time>
      </trkpt>
      <trkpt lat="45.77822" lon="7.27658">
        <ele>1552</ele>
        <time>2017-06-13T14:16:44Z</time>
      </trkpt>
      <trkpt lat="45.7782" lon="7.27663">
        <ele>1552</ele>
        <time>2017-06-13T14:16:45Z</time>
      </trkpt>
      <trkpt lat="45.7782" lon="7.27672">
        <ele>1541</ele>
        <time>2017-06-13T14:16:47Z</time>
      </trkpt>
      <trkpt lat="45.7782" lon="7.27677">
        <ele>1540</ele>
        <time>2017-06-13T14:16:48Z</time>
      </trkpt>
      <trkpt lat="45.77819" lon="7.27682">
        <ele>1538</ele>
        <time>2017-06-13T14:16:49Z</time>
      </trkpt>
      <trkpt lat="45.77819" lon="7.27684">
        <ele>1537</ele>
        <time>2017-06-13T14:16:50Z</time>
      </trkpt>
      <trkpt lat="45.77819" lon="7.27685">
        <ele>1537</ele>
        <time>2017-06-13T14:16:51Z</time>
      </trkpt>
      <trkpt lat="45.77819" lon="7.27682">
        <ele>1538</ele>
        <time>2017-06-13T14:16:53Z</time>
      </trkpt>
      <trkpt lat="45.77819" lon="7.27679">
        <ele>1539</ele>
        <time>2017-06-13T14:17:04Z</time>
      </trkpt>
      <trkpt lat="45.77824" lon="7.27677">
        <ele>1541</ele>
        <time>2017-06-13T14:17:06Z</time>
      </trkpt>
      <trkpt lat="45.77829" lon="7.27676">
        <ele>1543</ele>
        <time>2017-06-13T14:17:07Z</time>
      </trkpt>
      <trkpt lat="45.77833" lon="7.27677">
        <ele>1543</ele>
        <time>2017-06-13T14:17:08Z</time>
      </trkpt>
      <trkpt lat="45.77838" lon="7.2768">
        <ele>1545</ele>
        <time>2017-06-13T14:17:09Z</time>
      </trkpt>
      <trkpt lat="45.77844" lon="7.27684">
        <ele>1544</ele>
        <time>2017-06-13T14:17:10Z</time>
      </trkpt>
      <trkpt lat="45.7785" lon="7.27689">
        <ele>1543</ele>
        <time>2017-06-13T14:17:11Z</time>
      </trkpt>
      <trkpt lat="45.77861" lon="7.27696">
        <ele>1542</ele>
        <time>2017-06-13T14:17:13Z</time>
      </trkpt>
      <trkpt lat="45.77865" lon="7.277">
        <ele>1541</ele>
        <time>2017-06-13T14:17:14Z</time>
      </trkpt>
      <trkpt lat="45.7787" lon="7.27706">
        <ele>1540</ele>
        <time>2017-06-13T14:17:16Z</time>
      </trkpt>
      <trkpt lat="45.77865" lon="7.27712">
        <ele>1539</ele>
        <time>2017-06-13T14:17:21Z</time>
      </trkpt>
      <trkpt lat="45.7786" lon="7.27711">
        <ele>1539</ele>
        <time>2017-06-13T14:17:23Z</time>
      </trkpt>
      <trkpt lat="45.77848" lon="7.27707">
        <ele>1539</ele>
        <time>2017-06-13T14:17:28Z</time>
      </trkpt>
      <trkpt lat="45.77842" lon="7.27708">
        <ele>1539</ele>
        <time>2017-06-13T14:17:45Z</time>
      </trkpt>
      <trkpt lat="45.77842" lon="7.27709">
        <ele>1538</ele>
        <time>2017-06-13T14:17:52Z</time>
      </trkpt>
      <trkpt lat="45.77844" lon="7.27719">
        <ele>1536</ele>
        <time>2017-06-13T14:17:55Z</time>
      </trkpt>
      <trkpt lat="45.77852" lon="7.27727">
        <ele>1535</ele>
        <time>2017-06-13T14:17:57Z</time>
      </trkpt>
      <trkpt lat="45.77857" lon="7.27729">
        <ele>1535</ele>
        <time>2017-06-13T14:17:58Z</time>
      </trkpt>
      <trkpt lat="45.77869" lon="7.27734">
        <ele>1536</ele>
        <time>2017-06-13T14:18:00Z</time>
      </trkpt>
      <trkpt lat="45.77876" lon="7.27737">
        <ele>1536</ele>
        <time>2017-06-13T14:18:01Z</time>
      </trkpt>
      <trkpt lat="45.77883" lon="7.27739">
        <ele>1536</ele>
        <time>2017-06-13T14:18:02Z</time>
      </trkpt>
      <trkpt lat="45.77891" lon="7.27741">
        <ele>1536</ele>
        <time>2017-06-13T14:18:03Z</time>
      </trkpt>
      <trkpt lat="45.77898" lon="7.27744">
        <ele>1535</ele>
        <time>2017-06-13T14:18:04Z</time>
      </trkpt>
      <trkpt lat="45.77929" lon="7.27763">
        <ele>1521</ele>
        <time>2017-06-13T14:18:08Z</time>
      </trkpt>
      <trkpt lat="45.77937" lon="7.27768">
        <ele>1518</ele>
        <time>2017-06-13T14:18:09Z</time>
      </trkpt>
      <trkpt lat="45.77945" lon="7.2777">
        <ele>1516</ele>
        <time>2017-06-13T14:18:10Z</time>
      </trkpt>
      <trkpt lat="45.77952" lon="7.27762">
        <ele>1517</ele>
        <time>2017-06-13T14:18:11Z</time>
      </trkpt>
      <trkpt lat="45.77957" lon="7.27761">
        <ele>1517</ele>
        <time>2017-06-13T14:18:12Z</time>
      </trkpt>
      <trkpt lat="45.77962" lon="7.27758">
        <ele>1517</ele>
        <time>2017-06-13T14:18:13Z</time>
      </trkpt>
      <trkpt lat="45.77967" lon="7.27755">
        <ele>1517</ele>
        <time>2017-06-13T14:18:14Z</time>
      </trkpt>
      <trkpt lat="45.7797" lon="7.2775">
        <ele>1536</ele>
        <time>2017-06-13T14:18:15Z</time>
      </trkpt>
      <trkpt lat="45.77974" lon="7.27744">
        <ele>1536</ele>
        <time>2017-06-13T14:18:16Z</time>
      </trkpt>
      <trkpt lat="45.77979" lon="7.27739">
        <ele>1535</ele>
        <time>2017-06-13T14:18:17Z</time>
      </trkpt>
      <trkpt lat="45.77984" lon="7.27735">
        <ele>1535</ele>
        <time>2017-06-13T14:18:18Z</time>
      </trkpt>
      <trkpt lat="45.77991" lon="7.27731">
        <ele>1535</ele>
        <time>2017-06-13T14:18:19Z</time>
      </trkpt>
      <trkpt lat="45.77997" lon="7.2773">
        <ele>1535</ele>
        <time>2017-06-13T14:18:20Z</time>
      </trkpt>
      <trkpt lat="45.78006" lon="7.27729">
        <ele>1535</ele>
        <time>2017-06-13T14:18:21Z</time>
      </trkpt>
      <trkpt lat="45.78016" lon="7.27736">
        <ele>1535</ele>
        <time>2017-06-13T14:18:23Z</time>
      </trkpt>
      <trkpt lat="45.78032" lon="7.27741">
        <ele>1536</ele>
        <time>2017-06-13T14:18:25Z</time>
      </trkpt>
      <trkpt lat="45.78044" lon="7.27752">
        <ele>1519</ele>
        <time>2017-06-13T14:18:27Z</time>
      </trkpt>
      <trkpt lat="45.78053" lon="7.27767">
        <ele>1518</ele>
        <time>2017-06-13T14:18:29Z</time>
      </trkpt>
      <trkpt lat="45.7806" lon="7.27785">
        <ele>1515</ele>
        <time>2017-06-13T14:18:31Z</time>
      </trkpt>
      <trkpt lat="45.78071" lon="7.27812">
        <ele>1511</ele>
        <time>2017-06-13T14:18:34Z</time>
      </trkpt>
      <trkpt lat="45.78077" lon="7.27832">
        <ele>1507</ele>
        <time>2017-06-13T14:18:36Z</time>
      </trkpt>
      <trkpt lat="45.78082" lon="7.2784">
        <ele>1502</ele>
        <time>2017-06-13T14:18:37Z</time>
      </trkpt>
      <trkpt lat="45.78086" lon="7.27848">
        <ele>1505</ele>
        <time>2017-06-13T14:18:38Z</time>
      </trkpt>
      <trkpt lat="45.78096" lon="7.27864">
        <ele>1504</ele>
        <time>2017-06-13T14:18:40Z</time>
      </trkpt>
      <trkpt lat="45.78105" lon="7.27882">
        <ele>1503</ele>
        <time>2017-06-13T14:18:42Z</time>
      </trkpt>
      <trkpt lat="45.7811" lon="7.27904">
        <ele>1501</ele>
        <time>2017-06-13T14:18:44Z</time>
      </trkpt>
      <trkpt lat="45.78111" lon="7.27916">
        <ele>1500</ele>
        <time>2017-06-13T14:18:45Z</time>
      </trkpt>
      <trkpt lat="45.78109" lon="7.27929">
        <ele>1492</ele>
        <time>2017-06-13T14:18:46Z</time>
      </trkpt>
      <trkpt lat="45.78103" lon="7.27951">
        <ele>1491</ele>
        <time>2017-06-13T14:18:48Z</time>
      </trkpt>
      <trkpt lat="45.78096" lon="7.27972">
        <ele>1490</ele>
        <time>2017-06-13T14:18:50Z</time>
      </trkpt>
      <trkpt lat="45.78093" lon="7.27984">
        <ele>1488</ele>
        <time>2017-06-13T14:18:51Z</time>
      </trkpt>
      <trkpt lat="45.78091" lon="7.27996">
        <ele>1487</ele>
        <time>2017-06-13T14:18:52Z</time>
      </trkpt>
      <trkpt lat="45.78091" lon="7.28006">
        <ele>1483</ele>
        <time>2017-06-13T14:18:53Z</time>
      </trkpt>
      <trkpt lat="45.78093" lon="7.28014">
        <ele>1482</ele>
        <time>2017-06-13T14:18:54Z</time>
      </trkpt>
      <trkpt lat="45.781" lon="7.28028">
        <ele>1481</ele>
        <time>2017-06-13T14:18:56Z</time>
      </trkpt>
      <trkpt lat="45.7811" lon="7.28039">
        <ele>1480</ele>
        <time>2017-06-13T14:18:58Z</time>
      </trkpt>
      <trkpt lat="45.78115" lon="7.28043">
        <ele>1480</ele>
        <time>2017-06-13T14:18:59Z</time>
      </trkpt>
      <trkpt lat="45.78122" lon="7.28046">
        <ele>1480</ele>
        <time>2017-06-13T14:19:00Z</time>
      </trkpt>
      <trkpt lat="45.78135" lon="7.28047">
        <ele>1480</ele>
        <time>2017-06-13T14:19:02Z</time>
      </trkpt>
      <trkpt lat="45.78148" lon="7.2804">
        <ele>1481</ele>
        <time>2017-06-13T14:19:04Z</time>
      </trkpt>
      <trkpt lat="45.78154" lon="7.28035">
        <ele>1482</ele>
        <time>2017-06-13T14:19:05Z</time>
      </trkpt>
      <trkpt lat="45.78171" lon="7.28017">
        <ele>1481</ele>
        <time>2017-06-13T14:19:08Z</time>
      </trkpt>
      <trkpt lat="45.78179" lon="7.28008">
        <ele>1482</ele>
        <time>2017-06-13T14:19:10Z</time>
      </trkpt>
      <trkpt lat="45.78184" lon="7.28005">
        <ele>1481</ele>
        <time>2017-06-13T14:19:11Z</time>
      </trkpt>
      <trkpt lat="45.78187" lon="7.28007">
        <ele>1480</ele>
        <time>2017-06-13T14:19:12Z</time>
      </trkpt>
      <trkpt lat="45.78189" lon="7.28015">
        <ele>1479</ele>
        <time>2017-06-13T14:19:14Z</time>
      </trkpt>
      <trkpt lat="45.78188" lon="7.28026">
        <ele>1478</ele>
        <time>2017-06-13T14:19:16Z</time>
      </trkpt>
      <trkpt lat="45.78186" lon="7.28034">
        <ele>1477</ele>
        <time>2017-06-13T14:19:17Z</time>
      </trkpt>
      <trkpt lat="45.78182" lon="7.28052">
        <ele>1477</ele>
        <time>2017-06-13T14:19:20Z</time>
      </trkpt>
      <trkpt lat="45.78179" lon="7.28051">
        <ele>1477</ele>
        <time>2017-06-13T14:19:24Z</time>
      </trkpt>
      <trkpt lat="45.78178" lon="7.28052">
        <ele>1477</ele>
        <time>2017-06-13T14:19:42Z</time>
      </trkpt>
      <trkpt lat="45.78187" lon="7.28047">
        <ele>1476</ele>
        <time>2017-06-13T14:19:56Z</time>
      </trkpt>
      <trkpt lat="45.78195" lon="7.28034">
        <ele>1477</ele>
        <time>2017-06-13T14:19:59Z</time>
      </trkpt>
      <trkpt lat="45.78201" lon="7.28024">
        <ele>1477</ele>
        <time>2017-06-13T14:20:01Z</time>
      </trkpt>
      <trkpt lat="45.78204" lon="7.28018">
        <ele>1477</ele>
        <time>2017-06-13T14:20:02Z</time>
      </trkpt>
      <trkpt lat="45.78217" lon="7.27986">
        <ele>1482</ele>
        <time>2017-06-13T14:20:06Z</time>
      </trkpt>
      <trkpt lat="45.78225" lon="7.27975">
        <ele>1482</ele>
        <time>2017-06-13T14:20:08Z</time>
      </trkpt>
      <trkpt lat="45.78231" lon="7.2797">
        <ele>1482</ele>
        <time>2017-06-13T14:20:09Z</time>
      </trkpt>
      <trkpt lat="45.78246" lon="7.27956">
        <ele>1482</ele>
        <time>2017-06-13T14:20:12Z</time>
      </trkpt>
      <trkpt lat="45.7825" lon="7.27952">
        <ele>1482</ele>
        <time>2017-06-13T14:20:13Z</time>
      </trkpt>
      <trkpt lat="45.78255" lon="7.27947">
        <ele>1469</ele>
        <time>2017-06-13T14:20:14Z</time>
      </trkpt>
      <trkpt lat="45.78266" lon="7.27934">
        <ele>1470</ele>
        <time>2017-06-13T14:20:16Z</time>
      </trkpt>
      <trkpt lat="45.78277" lon="7.27918">
        <ele>1468</ele>
        <time>2017-06-13T14:20:18Z</time>
      </trkpt>
      <trkpt lat="45.78291" lon="7.27902">
        <ele>1471</ele>
        <time>2017-06-13T14:20:20Z</time>
      </trkpt>
      <trkpt lat="45.78299" lon="7.27896">
        <ele>1469</ele>
        <time>2017-06-13T14:20:21Z</time>
      </trkpt>
      <trkpt lat="45.78317" lon="7.27884">
        <ele>1467</ele>
        <time>2017-06-13T14:20:23Z</time>
      </trkpt>
      <trkpt lat="45.78327" lon="7.2788">
        <ele>1466</ele>
        <time>2017-06-13T14:20:24Z</time>
      </trkpt>
      <trkpt lat="45.78335" lon="7.27876">
        <ele>1443</ele>
        <time>2017-06-13T14:20:25Z</time>
      </trkpt>
      <trkpt lat="45.78345" lon="7.27871">
        <ele>1442</ele>
        <time>2017-06-13T14:20:26Z</time>
      </trkpt>
      <trkpt lat="45.78352" lon="7.27866">
        <ele>1441</ele>
        <time>2017-06-13T14:20:27Z</time>
      </trkpt>
      <trkpt lat="45.78359" lon="7.2786">
        <ele>1440</ele>
        <time>2017-06-13T14:20:28Z</time>
      </trkpt>
      <trkpt lat="45.78366" lon="7.27854">
        <ele>1439</ele>
        <time>2017-06-13T14:20:29Z</time>
      </trkpt>
      <trkpt lat="45.78373" lon="7.27847">
        <ele>1437</ele>
        <time>2017-06-13T14:20:30Z</time>
      </trkpt>
      <trkpt lat="45.78378" lon="7.2784">
        <ele>1435</ele>
        <time>2017-06-13T14:20:31Z</time>
      </trkpt>
      <trkpt lat="45.78382" lon="7.27834">
        <ele>1433</ele>
        <time>2017-06-13T14:20:32Z</time>
      </trkpt>
      <trkpt lat="45.78386" lon="7.2783">
        <ele>1436</ele>
        <time>2017-06-13T14:20:33Z</time>
      </trkpt>
      <trkpt lat="45.78389" lon="7.27827">
        <ele>1435</ele>
        <time>2017-06-13T14:20:34Z</time>
      </trkpt>
      <trkpt lat="45.78391" lon="7.27826">
        <ele>1434</ele>
        <time>2017-06-13T14:20:35Z</time>
      </trkpt>
      <trkpt lat="45.78395" lon="7.27824">
        <ele>1432</ele>
        <time>2017-06-13T14:20:37Z</time>
      </trkpt>
      <trkpt lat="45.78397" lon="7.27821">
        <ele>1432</ele>
        <time>2017-06-13T14:20:38Z</time>
      </trkpt>
      <trkpt lat="45.784" lon="7.27816">
        <ele>1432</ele>
        <time>2017-06-13T14:20:39Z</time>
      </trkpt>
      <trkpt lat="45.78405" lon="7.27802">
        <ele>1433</ele>
        <time>2017-06-13T14:20:41Z</time>
      </trkpt>
      <trkpt lat="45.7841" lon="7.27794">
        <ele>1434</ele>
        <time>2017-06-13T14:20:42Z</time>
      </trkpt>
      <trkpt lat="45.78416" lon="7.27784">
        <ele>1433</ele>
        <time>2017-06-13T14:20:43Z</time>
      </trkpt>
      <trkpt lat="45.78422" lon="7.27774">
        <ele>1408</ele>
        <time>2017-06-13T14:20:44Z</time>
      </trkpt>
      <trkpt lat="45.78426" lon="7.27763">
        <ele>1410</ele>
        <time>2017-06-13T14:20:45Z</time>
      </trkpt>
      <trkpt lat="45.78431" lon="7.27753">
        <ele>1411</ele>
        <time>2017-06-13T14:20:46Z</time>
      </trkpt>
      <trkpt lat="45.78437" lon="7.27744">
        <ele>1412</ele>
        <time>2017-06-13T14:20:47Z</time>
      </trkpt>
      <trkpt lat="45.78442" lon="7.27735">
        <ele>1410</ele>
        <time>2017-06-13T14:20:48Z</time>
      </trkpt>
      <trkpt lat="45.78447" lon="7.27727">
        <ele>1409</ele>
        <time>2017-06-13T14:20:49Z</time>
      </trkpt>
      <trkpt lat="45.7845" lon="7.27719">
        <ele>1408</ele>
        <time>2017-06-13T14:20:50Z</time>
      </trkpt>
      <trkpt lat="45.78456" lon="7.27711">
        <ele>1407</ele>
        <time>2017-06-13T14:20:51Z</time>
      </trkpt>
      <trkpt lat="45.78462" lon="7.27701">
        <ele>1406</ele>
        <time>2017-06-13T14:20:52Z</time>
      </trkpt>
      <trkpt lat="45.78469" lon="7.27692">
        <ele>1405</ele>
        <time>2017-06-13T14:20:53Z</time>
      </trkpt>
      <trkpt lat="45.78476" lon="7.27682">
        <ele>1403</ele>
        <time>2017-06-13T14:20:54Z</time>
      </trkpt>
      <trkpt lat="45.78481" lon="7.27672">
        <ele>1401</ele>
        <time>2017-06-13T14:20:55Z</time>
      </trkpt>
      <trkpt lat="45.78488" lon="7.27662">
        <ele>1403</ele>
        <time>2017-06-13T14:20:56Z</time>
      </trkpt>
      <trkpt lat="45.78492" lon="7.27652">
        <ele>1404</ele>
        <time>2017-06-13T14:20:57Z</time>
      </trkpt>
      <trkpt lat="45.78497" lon="7.27643">
        <ele>1406</ele>
        <time>2017-06-13T14:20:58Z</time>
      </trkpt>
      <trkpt lat="45.78502" lon="7.27632">
        <ele>1384</ele>
        <time>2017-06-13T14:20:59Z</time>
      </trkpt>
      <trkpt lat="45.78507" lon="7.27622">
        <ele>1384</ele>
        <time>2017-06-13T14:21:00Z</time>
      </trkpt>
      <trkpt lat="45.78518" lon="7.27603">
        <ele>1385</ele>
        <time>2017-06-13T14:21:02Z</time>
      </trkpt>
      <trkpt lat="45.7855" lon="7.27565">
        <ele>1381</ele>
        <time>2017-06-13T14:21:07Z</time>
      </trkpt>
      <trkpt lat="45.78557" lon="7.27557">
        <ele>1380</ele>
        <time>2017-06-13T14:21:08Z</time>
      </trkpt>
      <trkpt lat="45.78562" lon="7.27546">
        <ele>1380</ele>
        <time>2017-06-13T14:21:09Z</time>
      </trkpt>
      <trkpt lat="45.78564" lon="7.27535">
        <ele>1381</ele>
        <time>2017-06-13T14:21:10Z</time>
      </trkpt>
      <trkpt lat="45.78569" lon="7.27522">
        <ele>1380</ele>
        <time>2017-06-13T14:21:11Z</time>
      </trkpt>
      <trkpt lat="45.78572" lon="7.27513">
        <ele>1377</ele>
        <time>2017-06-13T14:21:12Z</time>
      </trkpt>
      <trkpt lat="45.78578" lon="7.27502">
        <ele>1373</ele>
        <time>2017-06-13T14:21:13Z</time>
      </trkpt>
      <trkpt lat="45.78579" lon="7.27491">
        <ele>1378</ele>
        <time>2017-06-13T14:21:14Z</time>
      </trkpt>
      <trkpt lat="45.78585" lon="7.27479">
        <ele>1359</ele>
        <time>2017-06-13T14:21:15Z</time>
      </trkpt>
      <trkpt lat="45.78591" lon="7.27468">
        <ele>1356</ele>
        <time>2017-06-13T14:21:16Z</time>
      </trkpt>
      <trkpt lat="45.78597" lon="7.27458">
        <ele>1355</ele>
        <time>2017-06-13T14:21:17Z</time>
      </trkpt>
      <trkpt lat="45.78603" lon="7.27449">
        <ele>1355</ele>
        <time>2017-06-13T14:21:18Z</time>
      </trkpt>
      <trkpt lat="45.78612" lon="7.27438">
        <ele>1354</ele>
        <time>2017-06-13T14:21:19Z</time>
      </trkpt>
      <trkpt lat="45.78616" lon="7.27431">
        <ele>1353</ele>
        <time>2017-06-13T14:21:20Z</time>
      </trkpt>
      <trkpt lat="45.7862" lon="7.27425">
        <ele>1352</ele>
        <time>2017-06-13T14:21:21Z</time>
      </trkpt>
      <trkpt lat="45.78622" lon="7.27422">
        <ele>1351</ele>
        <time>2017-06-13T14:21:22Z</time>
      </trkpt>
      <trkpt lat="45.78623" lon="7.27419">
        <ele>1351</ele>
        <time>2017-06-13T14:21:23Z</time>
      </trkpt>
      <trkpt lat="45.78625" lon="7.27417">
        <ele>1354</ele>
        <time>2017-06-13T14:21:24Z</time>
      </trkpt>
      <trkpt lat="45.7862" lon="7.27417">
        <ele>1352</ele>
        <time>2017-06-13T14:21:25Z</time>
      </trkpt>
      <trkpt lat="45.78604" lon="7.27416">
        <ele>1363</ele>
        <time>2017-06-13T14:21:27Z</time>
      </trkpt>
      <trkpt lat="45.78606" lon="7.27411">
        <ele>1362</ele>
        <time>2017-06-13T14:22:10Z</time>
      </trkpt>
      <trkpt lat="45.78608" lon="7.27406">
        <ele>1361</ele>
        <time>2017-06-13T14:22:12Z</time>
      </trkpt>
      <trkpt lat="45.78611" lon="7.27403">
        <ele>1360</ele>
        <time>2017-06-13T14:22:13Z</time>
      </trkpt>
      <trkpt lat="45.78619" lon="7.27395">
        <ele>1357</ele>
        <time>2017-06-13T14:22:15Z</time>
      </trkpt>
      <trkpt lat="45.78622" lon="7.27389">
        <ele>1356</ele>
        <time>2017-06-13T14:22:16Z</time>
      </trkpt>
      <trkpt lat="45.78626" lon="7.27382">
        <ele>1355</ele>
        <time>2017-06-13T14:22:17Z</time>
      </trkpt>
      <trkpt lat="45.78629" lon="7.27376">
        <ele>1354</ele>
        <time>2017-06-13T14:22:18Z</time>
      </trkpt>
      <trkpt lat="45.78632" lon="7.2737">
        <ele>1353</ele>
        <time>2017-06-13T14:22:19Z</time>
      </trkpt>
      <trkpt lat="45.78633" lon="7.27365">
        <ele>1353</ele>
        <time>2017-06-13T14:22:20Z</time>
      </trkpt>
      <trkpt lat="45.78634" lon="7.27361">
        <ele>1353</ele>
        <time>2017-06-13T14:22:21Z</time>
      </trkpt>
      <trkpt lat="45.78635" lon="7.2736">
        <ele>1352</ele>
        <time>2017-06-13T14:22:22Z</time>
      </trkpt>
      <trkpt lat="45.78635" lon="7.2736">
        <ele>1352</ele>
        <time>2017-06-13T14:22:23Z</time>
      </trkpt>
      <trkpt lat="45.78643" lon="7.27358">
        <ele>1350</ele>
        <time>2017-06-13T14:22:25Z</time>
      </trkpt>
      <trkpt lat="45.78653" lon="7.27365">
        <ele>1349</ele>
        <time>2017-06-13T14:22:30Z</time>
      </trkpt>
      <trkpt lat="45.78655" lon="7.27381">
        <ele>1348</ele>
        <time>2017-06-13T14:22:34Z</time>
      </trkpt>
      <trkpt lat="45.78649" lon="7.27406">
        <ele>1345</ele>
        <time>2017-06-13T14:22:38Z</time>
      </trkpt>
      <trkpt lat="45.78648" lon="7.27428">
        <ele>1342</ele>
        <time>2017-06-13T14:22:41Z</time>
      </trkpt>
      <trkpt lat="45.78644" lon="7.27455">
        <ele>1343</ele>
        <time>2017-06-13T14:22:44Z</time>
      </trkpt>
      <trkpt lat="45.78641" lon="7.27489">
        <ele>1339</ele>
        <time>2017-06-13T14:22:47Z</time>
      </trkpt>
      <trkpt lat="45.7864" lon="7.275">
        <ele>1338</ele>
        <time>2017-06-13T14:22:48Z</time>
      </trkpt>
      <trkpt lat="45.78639" lon="7.27511">
        <ele>1332</ele>
        <time>2017-06-13T14:22:49Z</time>
      </trkpt>
      <trkpt lat="45.78638" lon="7.27522">
        <ele>1333</ele>
        <time>2017-06-13T14:22:50Z</time>
      </trkpt>
      <trkpt lat="45.78636" lon="7.27533">
        <ele>1334</ele>
        <time>2017-06-13T14:22:51Z</time>
      </trkpt>
      <trkpt lat="45.78629" lon="7.27563">
        <ele>1334</ele>
        <time>2017-06-13T14:22:55Z</time>
      </trkpt>
      <trkpt lat="45.78625" lon="7.27567">
        <ele>1335</ele>
        <time>2017-06-13T14:22:56Z</time>
      </trkpt>
      <trkpt lat="45.78628" lon="7.27582">
        <ele>1333</ele>
        <time>2017-06-13T14:22:59Z</time>
      </trkpt>
      <trkpt lat="45.78629" lon="7.27589">
        <ele>1325</ele>
        <time>2017-06-13T14:23:00Z</time>
      </trkpt>
      <trkpt lat="45.78625" lon="7.27609">
        <ele>1326</ele>
        <time>2017-06-13T14:23:03Z</time>
      </trkpt>
      <trkpt lat="45.78622" lon="7.27623">
        <ele>1326</ele>
        <time>2017-06-13T14:23:06Z</time>
      </trkpt>
      <trkpt lat="45.78615" lon="7.27632">
        <ele>1328</ele>
        <time>2017-06-13T14:23:10Z</time>
      </trkpt>
      <trkpt lat="45.78605" lon="7.27658">
        <ele>1334</ele>
        <time>2017-06-13T14:23:19Z</time>
      </trkpt>
      <trkpt lat="45.78606" lon="7.27662">
        <ele>1333</ele>
        <time>2017-06-13T14:23:27Z</time>
      </trkpt>
      <trkpt lat="45.78612" lon="7.27674">
        <ele>1326</ele>
        <time>2017-06-13T14:23:30Z</time>
      </trkpt>
      <trkpt lat="45.78616" lon="7.2768">
        <ele>1323</ele>
        <time>2017-06-13T14:23:31Z</time>
      </trkpt>
      <trkpt lat="45.78618" lon="7.27686">
        <ele>1322</ele>
        <time>2017-06-13T14:23:32Z</time>
      </trkpt>
      <trkpt lat="45.78622" lon="7.27706">
        <ele>1319</ele>
        <time>2017-06-13T14:23:34Z</time>
      </trkpt>
      <trkpt lat="45.78624" lon="7.27716">
        <ele>1319</ele>
        <time>2017-06-13T14:23:35Z</time>
      </trkpt>
      <trkpt lat="45.78625" lon="7.2773">
        <ele>1318</ele>
        <time>2017-06-13T14:23:36Z</time>
      </trkpt>
      <trkpt lat="45.78628" lon="7.27745">
        <ele>1316</ele>
        <time>2017-06-13T14:23:37Z</time>
      </trkpt>
      <trkpt lat="45.78633" lon="7.27763">
        <ele>1313</ele>
        <time>2017-06-13T14:23:38Z</time>
      </trkpt>
      <trkpt lat="45.78636" lon="7.27779">
        <ele>1313</ele>
        <time>2017-06-13T14:23:39Z</time>
      </trkpt>
      <trkpt lat="45.7864" lon="7.27795">
        <ele>1312</ele>
        <time>2017-06-13T14:23:40Z</time>
      </trkpt>
      <trkpt lat="45.78644" lon="7.27812">
        <ele>1310</ele>
        <time>2017-06-13T14:23:41Z</time>
      </trkpt>
      <trkpt lat="45.78645" lon="7.27832">
        <ele>1308</ele>
        <time>2017-06-13T14:23:42Z</time>
      </trkpt>
      <trkpt lat="45.78649" lon="7.27848">
        <ele>1308</ele>
        <time>2017-06-13T14:23:43Z</time>
      </trkpt>
      <trkpt lat="45.78654" lon="7.27862">
        <ele>1310</ele>
        <time>2017-06-13T14:23:44Z</time>
      </trkpt>
      <trkpt lat="45.78661" lon="7.27877">
        <ele>1310</ele>
        <time>2017-06-13T14:23:45Z</time>
      </trkpt>
      <trkpt lat="45.78667" lon="7.27889">
        <ele>1309</ele>
        <time>2017-06-13T14:23:46Z</time>
      </trkpt>
      <trkpt lat="45.78671" lon="7.27901">
        <ele>1287</ele>
        <time>2017-06-13T14:23:47Z</time>
      </trkpt>
      <trkpt lat="45.78674" lon="7.27916">
        <ele>1292</ele>
        <time>2017-06-13T14:23:48Z</time>
      </trkpt>
      <trkpt lat="45.78679" lon="7.27943">
        <ele>1285</ele>
        <time>2017-06-13T14:23:50Z</time>
      </trkpt>
      <trkpt lat="45.78683" lon="7.27955">
        <ele>1283</ele>
        <time>2017-06-13T14:23:51Z</time>
      </trkpt>
      <trkpt lat="45.78687" lon="7.27967">
        <ele>1282</ele>
        <time>2017-06-13T14:23:52Z</time>
      </trkpt>
      <trkpt lat="45.78697" lon="7.27986">
        <ele>1281</ele>
        <time>2017-06-13T14:23:54Z</time>
      </trkpt>
      <trkpt lat="45.78708" lon="7.2802">
        <ele>1280</ele>
        <time>2017-06-13T14:23:56Z</time>
      </trkpt>
      <trkpt lat="45.78715" lon="7.28032">
        <ele>1279</ele>
        <time>2017-06-13T14:23:57Z</time>
      </trkpt>
      <trkpt lat="45.78721" lon="7.28055">
        <ele>1278</ele>
        <time>2017-06-13T14:23:58Z</time>
      </trkpt>
      <trkpt lat="45.78726" lon="7.28075">
        <ele>1275</ele>
        <time>2017-06-13T14:23:59Z</time>
      </trkpt>
      <trkpt lat="45.78731" lon="7.28089">
        <ele>1276</ele>
        <time>2017-06-13T14:24:00Z</time>
      </trkpt>
      <trkpt lat="45.78733" lon="7.28118">
        <ele>1280</ele>
        <time>2017-06-13T14:24:02Z</time>
      </trkpt>
      <trkpt lat="45.78732" lon="7.28133">
        <ele>1281</ele>
        <time>2017-06-13T14:24:03Z</time>
      </trkpt>
      <trkpt lat="45.78735" lon="7.28156">
        <ele>1279</ele>
        <time>2017-06-13T14:24:05Z</time>
      </trkpt>
      <trkpt lat="45.78735" lon="7.28175">
        <ele>1279</ele>
        <time>2017-06-13T14:24:06Z</time>
      </trkpt>
      <trkpt lat="45.78737" lon="7.28201">
        <ele>1282</ele>
        <time>2017-06-13T14:24:08Z</time>
      </trkpt>
      <trkpt lat="45.7874" lon="7.28212">
        <ele>1282</ele>
        <time>2017-06-13T14:24:09Z</time>
      </trkpt>
      <trkpt lat="45.78744" lon="7.28224">
        <ele>1281</ele>
        <time>2017-06-13T14:24:10Z</time>
      </trkpt>
      <trkpt lat="45.7875" lon="7.28252">
        <ele>1272</ele>
        <time>2017-06-13T14:24:12Z</time>
      </trkpt>
      <trkpt lat="45.78758" lon="7.28274">
        <ele>1257</ele>
        <time>2017-06-13T14:24:14Z</time>
      </trkpt>
      <trkpt lat="45.78777" lon="7.28344">
        <ele>1256</ele>
        <time>2017-06-13T14:24:21Z</time>
      </trkpt>
      <trkpt lat="45.78776" lon="7.28354">
        <ele>1255</ele>
        <time>2017-06-13T14:24:23Z</time>
      </trkpt>
      <trkpt lat="45.78775" lon="7.2836">
        <ele>1255</ele>
        <time>2017-06-13T14:24:25Z</time>
      </trkpt>
      <trkpt lat="45.78777" lon="7.2836">
        <ele>1255</ele>
        <time>2017-06-13T14:24:27Z</time>
      </trkpt>
      <trkpt lat="45.78778" lon="7.2836">
        <ele>1254</ele>
        <time>2017-06-13T14:24:28Z</time>
      </trkpt>
      <trkpt lat="45.78784" lon="7.28363">
        <ele>1253</ele>
        <time>2017-06-13T14:24:30Z</time>
      </trkpt>
      <trkpt lat="45.78786" lon="7.28372">
        <ele>1252</ele>
        <time>2017-06-13T14:24:31Z</time>
      </trkpt>
      <trkpt lat="45.78791" lon="7.28383">
        <ele>1251</ele>
        <time>2017-06-13T14:24:32Z</time>
      </trkpt>
      <trkpt lat="45.78793" lon="7.28398">
        <ele>1251</ele>
        <time>2017-06-13T14:24:33Z</time>
      </trkpt>
      <trkpt lat="45.78797" lon="7.28408">
        <ele>1249</ele>
        <time>2017-06-13T14:24:34Z</time>
      </trkpt>
      <trkpt lat="45.78804" lon="7.28418">
        <ele>1246</ele>
        <time>2017-06-13T14:24:35Z</time>
      </trkpt>
      <trkpt lat="45.78809" lon="7.28426">
        <ele>1244</ele>
        <time>2017-06-13T14:24:36Z</time>
      </trkpt>
      <trkpt lat="45.78813" lon="7.28432">
        <ele>1244</ele>
        <time>2017-06-13T14:24:37Z</time>
      </trkpt>
      <trkpt lat="45.78819" lon="7.28439">
        <ele>1243</ele>
        <time>2017-06-13T14:24:38Z</time>
      </trkpt>
      <trkpt lat="45.78822" lon="7.28449">
        <ele>1243</ele>
        <time>2017-06-13T14:24:39Z</time>
      </trkpt>
      <trkpt lat="45.78827" lon="7.2846">
        <ele>1243</ele>
        <time>2017-06-13T14:24:40Z</time>
      </trkpt>
      <trkpt lat="45.78833" lon="7.28469">
        <ele>1223</ele>
        <time>2017-06-13T14:24:41Z</time>
      </trkpt>
      <trkpt lat="45.78839" lon="7.28483">
        <ele>1225</ele>
        <time>2017-06-13T14:24:42Z</time>
      </trkpt>
      <trkpt lat="45.78843" lon="7.28495">
        <ele>1227</ele>
        <time>2017-06-13T14:24:43Z</time>
      </trkpt>
      <trkpt lat="45.78847" lon="7.28506">
        <ele>1224</ele>
        <time>2017-06-13T14:24:44Z</time>
      </trkpt>
      <trkpt lat="45.78851" lon="7.28515">
        <ele>1220</ele>
        <time>2017-06-13T14:24:45Z</time>
      </trkpt>
      <trkpt lat="45.78852" lon="7.28525">
        <ele>1218</ele>
        <time>2017-06-13T14:24:46Z</time>
      </trkpt>
      <trkpt lat="45.78852" lon="7.28534">
        <ele>1217</ele>
        <time>2017-06-13T14:24:47Z</time>
      </trkpt>
      <trkpt lat="45.78852" lon="7.28544">
        <ele>1216</ele>
        <time>2017-06-13T14:24:48Z</time>
      </trkpt>
      <trkpt lat="45.78852" lon="7.28555">
        <ele>1216</ele>
        <time>2017-06-13T14:24:49Z</time>
      </trkpt>
      <trkpt lat="45.78851" lon="7.28567">
        <ele>1217</ele>
        <time>2017-06-13T14:24:50Z</time>
      </trkpt>
      <trkpt lat="45.78851" lon="7.28577">
        <ele>1218</ele>
        <time>2017-06-13T14:24:51Z</time>
      </trkpt>
      <trkpt lat="45.7885" lon="7.28585">
        <ele>1214</ele>
        <time>2017-06-13T14:24:52Z</time>
      </trkpt>
      <trkpt lat="45.78848" lon="7.28594">
        <ele>1213</ele>
        <time>2017-06-13T14:24:53Z</time>
      </trkpt>
      <trkpt lat="45.78847" lon="7.28605">
        <ele>1211</ele>
        <time>2017-06-13T14:24:54Z</time>
      </trkpt>
      <trkpt lat="45.78847" lon="7.28615">
        <ele>1209</ele>
        <time>2017-06-13T14:24:55Z</time>
      </trkpt>
      <trkpt lat="45.78848" lon="7.28623">
        <ele>1208</ele>
        <time>2017-06-13T14:24:56Z</time>
      </trkpt>
      <trkpt lat="45.78847" lon="7.28636">
        <ele>1207</ele>
        <time>2017-06-13T14:24:59Z</time>
      </trkpt>
      <trkpt lat="45.78845" lon="7.28637">
        <ele>1208</ele>
        <time>2017-06-13T14:25:23Z</time>
      </trkpt>
      <trkpt lat="45.78845" lon="7.28637">
        <ele>1208</ele>
        <time>2017-06-13T14:25:55Z</time>
      </trkpt>
      <trkpt lat="45.78845" lon="7.28638">
        <ele>1208</ele>
        <time>2017-06-13T14:27:03Z</time>
      </trkpt>
      <trkpt lat="45.78844" lon="7.28638">
        <ele>1208</ele>
        <time>2017-06-13T14:27:52Z</time>
      </trkpt>
      <trkpt lat="45.78843" lon="7.28638">
        <ele>1208</ele>
        <time>2017-06-13T14:28:43Z</time>
      </trkpt>
      <trkpt lat="45.78841" lon="7.28653">
        <ele>1209</ele>
        <time>2017-06-13T14:29:37Z</time>
      </trkpt>
      <trkpt lat="45.7884" lon="7.28662">
        <ele>1211</ele>
        <time>2017-06-13T14:29:40Z</time>
      </trkpt>
      <trkpt lat="45.78837" lon="7.2867">
        <ele>1210</ele>
        <time>2017-06-13T14:29:42Z</time>
      </trkpt>
      <trkpt lat="45.78794" lon="7.28712">
        <ele>1214</ele>
        <time>2017-06-13T14:29:56Z</time>
      </trkpt>
      <trkpt lat="45.78785" lon="7.28719">
        <ele>1214</ele>
        <time>2017-06-13T14:29:58Z</time>
      </trkpt>
      <trkpt lat="45.78746" lon="7.28773">
        <ele>1214</ele>
        <time>2017-06-13T14:30:11Z</time>
      </trkpt>
      <trkpt lat="45.78736" lon="7.28781">
        <ele>1213</ele>
        <time>2017-06-13T14:30:13Z</time>
      </trkpt>
      <trkpt lat="45.78718" lon="7.28804">
        <ele>1212</ele>
        <time>2017-06-13T14:30:17Z</time>
      </trkpt>
      <trkpt lat="45.78709" lon="7.28815">
        <ele>1212</ele>
        <time>2017-06-13T14:30:19Z</time>
      </trkpt>
      <trkpt lat="45.78698" lon="7.2882">
        <ele>1213</ele>
        <time>2017-06-13T14:30:21Z</time>
      </trkpt>
      <trkpt lat="45.78688" lon="7.28827">
        <ele>1213</ele>
        <time>2017-06-13T14:30:23Z</time>
      </trkpt>
      <trkpt lat="45.78674" lon="7.28843">
        <ele>1205</ele>
        <time>2017-06-13T14:30:26Z</time>
      </trkpt>
      <trkpt lat="45.7862" lon="7.28882">
        <ele>1208</ele>
        <time>2017-06-13T14:30:34Z</time>
      </trkpt>
      <trkpt lat="45.78606" lon="7.2889">
        <ele>1208</ele>
        <time>2017-06-13T14:30:36Z</time>
      </trkpt>
      <trkpt lat="45.78591" lon="7.28903">
        <ele>1206</ele>
        <time>2017-06-13T14:30:38Z</time>
      </trkpt>
      <trkpt lat="45.78572" lon="7.28914">
        <ele>1211</ele>
        <time>2017-06-13T14:30:41Z</time>
      </trkpt>
      <trkpt lat="45.78556" lon="7.28932">
        <ele>1199</ele>
        <time>2017-06-13T14:30:44Z</time>
      </trkpt>
      <trkpt lat="45.78543" lon="7.28938">
        <ele>1200</ele>
        <time>2017-06-13T14:30:46Z</time>
      </trkpt>
      <trkpt lat="45.78519" lon="7.28946">
        <ele>1201</ele>
        <time>2017-06-13T14:30:50Z</time>
      </trkpt>
      <trkpt lat="45.78492" lon="7.2895">
        <ele>1208</ele>
        <time>2017-06-13T14:30:55Z</time>
      </trkpt>
      <trkpt lat="45.78486" lon="7.28951">
        <ele>1208</ele>
        <time>2017-06-13T14:30:56Z</time>
      </trkpt>
      <trkpt lat="45.7848" lon="7.28951">
        <ele>1208</ele>
        <time>2017-06-13T14:30:57Z</time>
      </trkpt>
      <trkpt lat="45.78459" lon="7.2895">
        <ele>1208</ele>
        <time>2017-06-13T14:31:00Z</time>
      </trkpt>
      <trkpt lat="45.78398" lon="7.28944">
        <ele>1211</ele>
        <time>2017-06-13T14:31:08Z</time>
      </trkpt>
      <trkpt lat="45.78377" lon="7.28946">
        <ele>1210</ele>
        <time>2017-06-13T14:31:11Z</time>
      </trkpt>
      <trkpt lat="45.78329" lon="7.28943">
        <ele>1206</ele>
        <time>2017-06-13T14:31:18Z</time>
      </trkpt>
      <trkpt lat="45.78292" lon="7.28932">
        <ele>1203</ele>
        <time>2017-06-13T14:31:23Z</time>
      </trkpt>
      <trkpt lat="45.78279" lon="7.28927">
        <ele>1203</ele>
        <time>2017-06-13T14:31:25Z</time>
      </trkpt>
      <trkpt lat="45.78227" lon="7.28901">
        <ele>1215</ele>
        <time>2017-06-13T14:31:32Z</time>
      </trkpt>
      <trkpt lat="45.78175" lon="7.28878">
        <ele>1216</ele>
        <time>2017-06-13T14:31:39Z</time>
      </trkpt>
      <trkpt lat="45.78155" lon="7.28871">
        <ele>1208</ele>
        <time>2017-06-13T14:31:42Z</time>
      </trkpt>
      <trkpt lat="45.78124" lon="7.2885">
        <ele>1209</ele>
        <time>2017-06-13T14:31:47Z</time>
      </trkpt>
      <trkpt lat="45.78111" lon="7.28838">
        <ele>1209</ele>
        <time>2017-06-13T14:31:49Z</time>
      </trkpt>
      <trkpt lat="45.78058" lon="7.28813">
        <ele>1217</ele>
        <time>2017-06-13T14:31:57Z</time>
      </trkpt>
      <trkpt lat="45.78049" lon="7.288">
        <ele>1218</ele>
        <time>2017-06-13T14:31:59Z</time>
      </trkpt>
      <trkpt lat="45.78039" lon="7.28786">
        <ele>1220</ele>
        <time>2017-06-13T14:32:01Z</time>
      </trkpt>
      <trkpt lat="45.78027" lon="7.28769">
        <ele>1221</ele>
        <time>2017-06-13T14:32:04Z</time>
      </trkpt>
      <trkpt lat="45.78007" lon="7.28751">
        <ele>1222</ele>
        <time>2017-06-13T14:32:08Z</time>
      </trkpt>
      <trkpt lat="45.77958" lon="7.28708">
        <ele>1229</ele>
        <time>2017-06-13T14:32:16Z</time>
      </trkpt>
      <trkpt lat="45.77952" lon="7.28704">
        <ele>1229</ele>
        <time>2017-06-13T14:32:17Z</time>
      </trkpt>
      <trkpt lat="45.77945" lon="7.28701">
        <ele>1229</ele>
        <time>2017-06-13T14:32:18Z</time>
      </trkpt>
      <trkpt lat="45.77927" lon="7.28695">
        <ele>1229</ele>
        <time>2017-06-13T14:32:21Z</time>
      </trkpt>
      <trkpt lat="45.77893" lon="7.28677">
        <ele>1218</ele>
        <time>2017-06-13T14:32:26Z</time>
      </trkpt>
      <trkpt lat="45.77864" lon="7.28674">
        <ele>1211</ele>
        <time>2017-06-13T14:32:30Z</time>
      </trkpt>
      <trkpt lat="45.77815" lon="7.2863">
        <ele>1212</ele>
        <time>2017-06-13T14:32:38Z</time>
      </trkpt>
      <trkpt lat="45.77798" lon="7.28619">
        <ele>1211</ele>
        <time>2017-06-13T14:32:41Z</time>
      </trkpt>
      <trkpt lat="45.77785" lon="7.28601">
        <ele>1210</ele>
        <time>2017-06-13T14:32:44Z</time>
      </trkpt>
      <trkpt lat="45.77775" lon="7.28592">
        <ele>1209</ele>
        <time>2017-06-13T14:32:46Z</time>
      </trkpt>
      <trkpt lat="45.77753" lon="7.28573">
        <ele>1212</ele>
        <time>2017-06-13T14:32:50Z</time>
      </trkpt>
      <trkpt lat="45.77746" lon="7.28556">
        <ele>1200</ele>
        <time>2017-06-13T14:32:52Z</time>
      </trkpt>
      <trkpt lat="45.77728" lon="7.28473">
        <ele>1220</ele>
        <time>2017-06-13T14:33:01Z</time>
      </trkpt>
      <trkpt lat="45.77726" lon="7.28452">
        <ele>1224</ele>
        <time>2017-06-13T14:33:03Z</time>
      </trkpt>
      <trkpt lat="45.77718" lon="7.28439">
        <ele>1225</ele>
        <time>2017-06-13T14:33:05Z</time>
      </trkpt>
      <trkpt lat="45.77706" lon="7.28434">
        <ele>1224</ele>
        <time>2017-06-13T14:33:07Z</time>
      </trkpt>
      <trkpt lat="45.77694" lon="7.28435">
        <ele>1223</ele>
        <time>2017-06-13T14:33:09Z</time>
      </trkpt>
      <trkpt lat="45.77668" lon="7.28455">
        <ele>1217</ele>
        <time>2017-06-13T14:33:14Z</time>
      </trkpt>
      <trkpt lat="45.77657" lon="7.28459">
        <ele>1209</ele>
        <time>2017-06-13T14:33:16Z</time>
      </trkpt>
      <trkpt lat="45.77644" lon="7.28454">
        <ele>1211</ele>
        <time>2017-06-13T14:33:18Z</time>
      </trkpt>
      <trkpt lat="45.77621" lon="7.28433">
        <ele>1215</ele>
        <time>2017-06-13T14:33:23Z</time>
      </trkpt>
      <trkpt lat="45.77571" lon="7.28424">
        <ele>1225</ele>
        <time>2017-06-13T14:33:31Z</time>
      </trkpt>
      <trkpt lat="45.77562" lon="7.28431">
        <ele>1222</ele>
        <time>2017-06-13T14:33:33Z</time>
      </trkpt>
      <trkpt lat="45.77556" lon="7.28441">
        <ele>1220</ele>
        <time>2017-06-13T14:33:35Z</time>
      </trkpt>
      <trkpt lat="45.77554" lon="7.28452">
        <ele>1217</ele>
        <time>2017-06-13T14:33:37Z</time>
      </trkpt>
      <trkpt lat="45.77553" lon="7.28464">
        <ele>1215</ele>
        <time>2017-06-13T14:33:39Z</time>
      </trkpt>
      <trkpt lat="45.77536" lon="7.28494">
        <ele>1211</ele>
        <time>2017-06-13T14:33:45Z</time>
      </trkpt>
      <trkpt lat="45.77532" lon="7.28497">
        <ele>1211</ele>
        <time>2017-06-13T14:33:46Z</time>
      </trkpt>
      <trkpt lat="45.77526" lon="7.28499">
        <ele>1212</ele>
        <time>2017-06-13T14:33:47Z</time>
      </trkpt>
      <trkpt lat="45.77501" lon="7.28496">
        <ele>1210</ele>
        <time>2017-06-13T14:33:51Z</time>
      </trkpt>
      <trkpt lat="45.77493" lon="7.28504">
        <ele>1209</ele>
        <time>2017-06-13T14:33:53Z</time>
      </trkpt>
      <trkpt lat="45.77486" lon="7.28514">
        <ele>1209</ele>
        <time>2017-06-13T14:33:55Z</time>
      </trkpt>
      <trkpt lat="45.77463" lon="7.28568">
        <ele>1205</ele>
        <time>2017-06-13T14:34:04Z</time>
      </trkpt>
      <trkpt lat="45.77421" lon="7.28629">
        <ele>1195</ele>
        <time>2017-06-13T14:34:17Z</time>
      </trkpt>
      <trkpt lat="45.77399" lon="7.28669">
        <ele>1200</ele>
        <time>2017-06-13T14:34:23Z</time>
      </trkpt>
      <trkpt lat="45.77386" lon="7.28682">
        <ele>1202</ele>
        <time>2017-06-13T14:34:25Z</time>
      </trkpt>
      <trkpt lat="45.77361" lon="7.28697">
        <ele>1205</ele>
        <time>2017-06-13T14:34:31Z</time>
      </trkpt>
      <trkpt lat="45.7734" lon="7.28704">
        <ele>1207</ele>
        <time>2017-06-13T14:34:34Z</time>
      </trkpt>
      <trkpt lat="45.77331" lon="7.28709">
        <ele>1221</ele>
        <time>2017-06-13T14:34:36Z</time>
      </trkpt>
      <trkpt lat="45.77306" lon="7.28738">
        <ele>1217</ele>
        <time>2017-06-13T14:34:41Z</time>
      </trkpt>
      <trkpt lat="45.77294" lon="7.28744">
        <ele>1219</ele>
        <time>2017-06-13T14:34:43Z</time>
      </trkpt>
      <trkpt lat="45.77243" lon="7.28774">
        <ele>1211</ele>
        <time>2017-06-13T14:34:50Z</time>
      </trkpt>
      <trkpt lat="45.77209" lon="7.28798">
        <ele>1207</ele>
        <time>2017-06-13T14:34:56Z</time>
      </trkpt>
      <trkpt lat="45.77196" lon="7.28807">
        <ele>1206</ele>
        <time>2017-06-13T14:34:58Z</time>
      </trkpt>
      <trkpt lat="45.77161" lon="7.28821">
        <ele>1209</ele>
        <time>2017-06-13T14:35:03Z</time>
      </trkpt>
      <trkpt lat="45.77147" lon="7.28825">
        <ele>1211</ele>
        <time>2017-06-13T14:35:05Z</time>
      </trkpt>
      <trkpt lat="45.7709" lon="7.2883">
        <ele>1208</ele>
        <time>2017-06-13T14:35:13Z</time>
      </trkpt>
      <trkpt lat="45.77059" lon="7.28829">
        <ele>1209</ele>
        <time>2017-06-13T14:35:18Z</time>
      </trkpt>
      <trkpt lat="45.77048" lon="7.28828">
        <ele>1209</ele>
        <time>2017-06-13T14:35:20Z</time>
      </trkpt>
      <trkpt lat="45.77038" lon="7.28819">
        <ele>1209</ele>
        <time>2017-06-13T14:35:22Z</time>
      </trkpt>
      <trkpt lat="45.77021" lon="7.28799">
        <ele>1210</ele>
        <time>2017-06-13T14:35:26Z</time>
      </trkpt>
      <trkpt lat="45.77001" lon="7.28789">
        <ele>1211</ele>
        <time>2017-06-13T14:35:29Z</time>
      </trkpt>
      <trkpt lat="45.76988" lon="7.28785">
        <ele>1207</ele>
        <time>2017-06-13T14:35:31Z</time>
      </trkpt>
      <trkpt lat="45.76976" lon="7.28785">
        <ele>1207</ele>
        <time>2017-06-13T14:35:33Z</time>
      </trkpt>
      <trkpt lat="45.76957" lon="7.28797">
        <ele>1205</ele>
        <time>2017-06-13T14:35:37Z</time>
      </trkpt>
      <trkpt lat="45.76951" lon="7.28799">
        <ele>1204</ele>
        <time>2017-06-13T14:35:38Z</time>
      </trkpt>
      <trkpt lat="45.76905" lon="7.28804">
        <ele>1202</ele>
        <time>2017-06-13T14:35:49Z</time>
      </trkpt>
      <trkpt lat="45.76853" lon="7.2878">
        <ele>1208</ele>
        <time>2017-06-13T14:36:03Z</time>
      </trkpt>
      <trkpt lat="45.76825" lon="7.28782">
        <ele>1212</ele>
        <time>2017-06-13T14:36:10Z</time>
      </trkpt>
      <trkpt lat="45.76816" lon="7.28785">
        <ele>1211</ele>
        <time>2017-06-13T14:36:12Z</time>
      </trkpt>
      <trkpt lat="45.76786" lon="7.28802">
        <ele>1210</ele>
        <time>2017-06-13T14:36:18Z</time>
      </trkpt>
      <trkpt lat="45.76777" lon="7.28807">
        <ele>1209</ele>
        <time>2017-06-13T14:36:20Z</time>
      </trkpt>
      <trkpt lat="45.7677" lon="7.28813">
        <ele>1208</ele>
        <time>2017-06-13T14:36:22Z</time>
      </trkpt>
      <trkpt lat="45.76756" lon="7.28829">
        <ele>1206</ele>
        <time>2017-06-13T14:36:25Z</time>
      </trkpt>
      <trkpt lat="45.76745" lon="7.28835">
        <ele>1202</ele>
        <time>2017-06-13T14:36:27Z</time>
      </trkpt>
      <trkpt lat="45.76732" lon="7.2884">
        <ele>1200</ele>
        <time>2017-06-13T14:36:30Z</time>
      </trkpt>
      <trkpt lat="45.76677" lon="7.28862">
        <ele>1200</ele>
        <time>2017-06-13T14:36:42Z</time>
      </trkpt>
      <trkpt lat="45.76671" lon="7.28861">
        <ele>1200</ele>
        <time>2017-06-13T14:36:43Z</time>
      </trkpt>
      <trkpt lat="45.76652" lon="7.28865">
        <ele>1203</ele>
        <time>2017-06-13T14:36:46Z</time>
      </trkpt>
      <trkpt lat="45.76629" lon="7.28882">
        <ele>1200</ele>
        <time>2017-06-13T14:36:50Z</time>
      </trkpt>
      <trkpt lat="45.76583" lon="7.28902">
        <ele>1199</ele>
        <time>2017-06-13T14:36:58Z</time>
      </trkpt>
      <trkpt lat="45.76572" lon="7.28904">
        <ele>1200</ele>
        <time>2017-06-13T14:37:00Z</time>
      </trkpt>
      <trkpt lat="45.7656" lon="7.28902">
        <ele>1202</ele>
        <time>2017-06-13T14:37:02Z</time>
      </trkpt>
      <trkpt lat="45.76539" lon="7.28889">
        <ele>1206</ele>
        <time>2017-06-13T14:37:06Z</time>
      </trkpt>
      <trkpt lat="45.76519" lon="7.28872">
        <ele>1209</ele>
        <time>2017-06-13T14:37:10Z</time>
      </trkpt>
      <trkpt lat="45.76514" lon="7.28869">
        <ele>1209</ele>
        <time>2017-06-13T14:37:11Z</time>
      </trkpt>
      <trkpt lat="45.7651" lon="7.28869">
        <ele>1210</ele>
        <time>2017-06-13T14:37:12Z</time>
      </trkpt>
      <trkpt lat="45.76477" lon="7.28901">
        <ele>1212</ele>
        <time>2017-06-13T14:37:21Z</time>
      </trkpt>
      <trkpt lat="45.76442" lon="7.28933">
        <ele>1199</ele>
        <time>2017-06-13T14:37:28Z</time>
      </trkpt>
      <trkpt lat="45.76407" lon="7.28946">
        <ele>1203</ele>
        <time>2017-06-13T14:37:36Z</time>
      </trkpt>
      <trkpt lat="45.76389" lon="7.2894">
        <ele>1203</ele>
        <time>2017-06-13T14:37:44Z</time>
      </trkpt>
      <trkpt lat="45.76381" lon="7.28943">
        <ele>1203</ele>
        <time>2017-06-13T14:37:53Z</time>
      </trkpt>
      <trkpt lat="45.76371" lon="7.28944">
        <ele>1202</ele>
        <time>2017-06-13T14:37:56Z</time>
      </trkpt>
      <trkpt lat="45.76337" lon="7.28953">
        <ele>1202</ele>
        <time>2017-06-13T14:38:04Z</time>
      </trkpt>
      <trkpt lat="45.76328" lon="7.28953">
        <ele>1203</ele>
        <time>2017-06-13T14:38:06Z</time>
      </trkpt>
      <trkpt lat="45.76304" lon="7.28946">
        <ele>1204</ele>
        <time>2017-06-13T14:38:11Z</time>
      </trkpt>
      <trkpt lat="45.76293" lon="7.28943">
        <ele>1204</ele>
        <time>2017-06-13T14:38:13Z</time>
      </trkpt>
      <trkpt lat="45.76238" lon="7.28937">
        <ele>1212</ele>
        <time>2017-06-13T14:38:32Z</time>
      </trkpt>
      <trkpt lat="45.76211" lon="7.28959">
        <ele>1212</ele>
        <time>2017-06-13T14:38:39Z</time>
      </trkpt>
      <trkpt lat="45.76203" lon="7.28974">
        <ele>1211</ele>
        <time>2017-06-13T14:38:42Z</time>
      </trkpt>
      <trkpt lat="45.7619" lon="7.28993">
        <ele>1211</ele>
        <time>2017-06-13T14:38:46Z</time>
      </trkpt>
      <trkpt lat="45.76179" lon="7.29004">
        <ele>1203</ele>
        <time>2017-06-13T14:38:48Z</time>
      </trkpt>
      <trkpt lat="45.7617" lon="7.29013">
        <ele>1202</ele>
        <time>2017-06-13T14:38:50Z</time>
      </trkpt>
      <trkpt lat="45.76162" lon="7.29025">
        <ele>1207</ele>
        <time>2017-06-13T14:38:52Z</time>
      </trkpt>
      <trkpt lat="45.76152" lon="7.29036">
        <ele>1205</ele>
        <time>2017-06-13T14:38:54Z</time>
      </trkpt>
      <trkpt lat="45.76107" lon="7.29082">
        <ele>1204</ele>
        <time>2017-06-13T14:39:03Z</time>
      </trkpt>
      <trkpt lat="45.76094" lon="7.2909">
        <ele>1196</ele>
        <time>2017-06-13T14:39:05Z</time>
      </trkpt>
      <trkpt lat="45.76073" lon="7.29096">
        <ele>1203</ele>
        <time>2017-06-13T14:39:08Z</time>
      </trkpt>
    </trkseg>
  </trk>
</gpx>